PORTS® Data Listing: 8726667 Mckay Bay Entrance, FL

CO-OPS RAW PORTS DATA

************************      PRELIMINARY DATA      ************************** 

     THIS RAW DATA HAS NOT BEEN SUBJECT TO THE NATIONAL OCEAN SERVICE'S        
     QUALITY CONTROL OR QUALITY ASSURANCE PROCEDURES AND DOES NOT MEET         
     THE CRITERIA AND STANDARDS OF OFFICIAL NATIONAL OCEAN SERVICE             
     DATA.  IT IS RELEASED FOR LIMITED PUBLIC USE AS PRELIMINARY DATA TO       
     BE USED ONLY WITH APPROPRIATE CAUTION.                                    

************************      PRELIMINARY DATA      ************************** 


       CD   -   Calendar date
       T    -   Time
       TZ   -   Timezone
       PW   -   Predicted water level (feet above MLLW)
       OW   -   Observed water level (feet above MLLW)
       WS   -   Wind speed (knots)
       WD   -   Wind direction (degrees true)
       WG   -   Wind gust (knots)
       AT   -   Air temperature (degrees farenheit)
       WT   -   Water temperature (degrees farenheit)
       AP   -   Air pressure (millibars)
       SA   -   Salinty (PSU - Practical Salinity Units)
       SG   -   Specific gravity
       RH   -   Relative humidity
       AG   -   Air gap (feet)
       VI   -   Visibility (nautical miles)

       ** NOTE **
       A variable that has its data fields filled with "9"s, indicates that
       data was not collected for that sample period.
       **********


STATION NAME: Mckay Bay Entrance (8726667)
****************************************************************************************************
    CD       T    TZ    PW     OW    WS   WD   WG    AT    WT    AP    SA    SG     RH    AG   VI
****************************************************************************************************
2019/10/13 10:00 EDT    0.71   1.84 -999 -999 -999 -99.9  82.6 -999.9 -9.9 -9.999 -99.9 -99.99 -9.99
2019/10/13 10:06 EDT    0.75   1.93 -999 -999 -999 -99.9  82.6 -999.9 -9.9 -9.999 -99.9 -99.99 -9.99
2019/10/13 10:12 EDT    0.79   2.01 -999 -999 -999 -99.9  82.6 -999.9 -9.9 -9.999 -99.9 -99.99 -9.99
2019/10/13 10:18 EDT    0.84   2.09 -999 -999 -999 -99.9  82.6 -999.9 -9.9 -9.999 -99.9 -99.99 -9.99
2019/10/13 10:24 EDT    0.88   2.19 -999 -999 -999 -99.9  82.6 -999.9 -9.9 -9.999 -99.9 -99.99 -9.99
2019/10/13 10:30 EDT    0.93   2.28 -999 -999 -999 -99.9  82.6 -999.9 -9.9 -9.999 -99.9 -99.99 -9.99
2019/10/13 10:36 EDT    0.98   2.37 -999 -999 -999 -99.9  82.6 -999.9 -9.9 -9.999 -99.9 -99.99 -9.99
2019/10/13 10:42 EDT    1.04   2.46 -999 -999 -999 -99.9  82.6 -999.9 -9.9 -9.999 -99.9 -99.99 -9.99
2019/10/13 10:48 EDT    1.09   2.52 -999 -999 -999 -99.9  82.8 -999.9 -9.9 -9.999 -99.9 -99.99 -9.99
2019/10/13 10:54 EDT    1.14   2.60 -999 -999 -999 -99.9  82.9 -999.9 -9.9 -9.999 -99.9 -99.99 -9.99
2019/10/13 11:00 EDT    1.20   2.66 -999 -999 -999 -99.9  83.1 -999.9 -9.9 -9.999 -99.9 -99.99 -9.99
2019/10/13 11:06 EDT    1.26   2.72 -999 -999 -999 -99.9  82.9 -999.9 -9.9 -9.999 -99.9 -99.99 -9.99
2019/10/13 11:12 EDT    1.31   2.77 -999 -999 -999 -99.9  82.9 -999.9 -9.9 -9.999 -99.9 -99.99 -9.99
2019/10/13 11:18 EDT    1.37   2.81 -999 -999 -999 -99.9  82.8 -999.9 -9.9 -9.999 -99.9 -99.99 -9.99
2019/10/13 11:24 EDT    1.42   2.85 -999 -999 -999 -99.9  82.8 -999.9 -9.9 -9.999 -99.9 -99.99 -9.99
2019/10/13 11:30 EDT    1.48   2.88 -999 -999 -999 -99.9  82.8 -999.9 -9.9 -9.999 -99.9 -99.99 -9.99
2019/10/13 11:36 EDT    1.53   2.92 -999 -999 -999 -99.9  82.8 -999.9 -9.9 -9.999 -99.9 -99.99 -9.99
2019/10/13 11:42 EDT    1.59   2.94 -999 -999 -999 -99.9  82.8 -999.9 -9.9 -9.999 -99.9 -99.99 -9.99
2019/10/13 11:48 EDT    1.64   2.97 -999 -999 -999 -99.9  82.8 -999.9 -9.9 -9.999 -99.9 -99.99 -9.99
2019/10/13 11:54 EDT    1.69   2.99 -999 -999 -999 -99.9  82.8 -999.9 -9.9 -9.999 -99.9 -99.99 -9.99
2019/10/13 12:00 EDT    1.75   3.02 -999 -999 -999 -99.9  82.8 -999.9 -9.9 -9.999 -99.9 -99.99 -9.99
2019/10/13 12:06 EDT    1.80   3.05 -999 -999 -999 -99.9  82.8 -999.9 -9.9 -9.999 -99.9 -99.99 -9.99
2019/10/13 12:12 EDT    1.84   3.07 -999 -999 -999 -99.9  82.8 -999.9 -9.9 -9.999 -99.9 -99.99 -9.99
2019/10/13 12:18 EDT    1.89   3.10 -999 -999 -999 -99.9  82.8 -999.9 -9.9 -9.999 -99.9 -99.99 -9.99
2019/10/13 12:24 EDT    1.94   3.13 -999 -999 -999 -99.9  82.9 -999.9 -9.9 -9.999 -99.9 -99.99 -9.99
2019/10/13 12:30 EDT    1.98   3.15 -999 -999 -999 -99.9  83.1 -999.9 -9.9 -9.999 -99.9 -99.99 -9.99
2019/10/13 12:36 EDT    2.03   3.19 -999 -999 -999 -99.9  83.5 -999.9 -9.9 -9.999 -99.9 -99.99 -9.99
2019/10/13 12:42 EDT    2.07   3.21 -999 -999 -999 -99.9  83.3 -999.9 -9.9 -9.999 -99.9 -99.99 -9.99
2019/10/13 12:48 EDT    2.11   3.24 -999 -999 -999 -99.9  83.1 -999.9 -9.9 -9.999 -99.9 -99.99 -9.99
2019/10/13 12:54 EDT    2.15   3.28 -999 -999 -999 -99.9  83.1 -999.9 -9.9 -9.999 -99.9 -99.99 -9.99
2019/10/13 13:00 EDT    2.18   3.32 -999 -999 -999 -99.9  83.1 -999.9 -9.9 -9.999 -99.9 -99.99 -9.99
2019/10/13 13:06 EDT    2.22   3.34 -999 -999 -999 -99.9  83.1 -999.9 -9.9 -9.999 -99.9 -99.99 -9.99
2019/10/13 13:12 EDT    2.26   3.38 -999 -999 -999 -99.9  83.1 -999.9 -9.9 -9.999 -99.9 -99.99 -9.99
2019/10/13 13:18 EDT    2.29   3.41 -999 -999 -999 -99.9  82.9 -999.9 -9.9 -9.999 -99.9 -99.99 -9.99
2019/10/13 13:24 EDT    2.32   3.46 -999 -999 -999 -99.9  83.1 -999.9 -9.9 -9.999 -99.9 -99.99 -9.99
2019/10/13 13:30 EDT    2.35   3.48 -999 -999 -999 -99.9  83.1 -999.9 -9.9 -9.999 -99.9 -99.99 -9.99
2019/10/13 13:36 EDT    2.38   3.50 -999 -999 -999 -99.9  83.1 -999.9 -9.9 -9.999 -99.9 -99.99 -9.99
2019/10/13 13:42 EDT    2.41   3.55 -999 -999 -999 -99.9  83.1 -999.9 -9.9 -9.999 -99.9 -99.99 -9.99
2019/10/13 13:48 EDT    2.43   3.58 -999 -999 -999 -99.9  83.1 -999.9 -9.9 -9.999 -99.9 -99.99 -9.99
2019/10/13 13:54 EDT    2.46   3.62 -999 -999 -999 -99.9  83.1 -999.9 -9.9 -9.999 -99.9 -99.99 -9.99
2019/10/13 14:00 EDT    2.48   3.66 -999 -999 -999 -99.9  83.1 -999.9 -9.9 -9.999 -99.9 -99.99 -9.99
2019/10/13 14:06 EDT    2.50   3.70 -999 -999 -999 -99.9  83.1 -999.9 -9.9 -9.999 -99.9 -99.99 -9.99
2019/10/13 14:12 EDT    2.52   3.72 -999 -999 -999 -99.9  83.3 -999.9 -9.9 -9.999 -99.9 -99.99 -9.99
2019/10/13 14:18 EDT    2.54   3.74 -999 -999 -999 -99.9  83.5 -999.9 -9.9 -9.999 -99.9 -99.99 -9.99
2019/10/13 14:24 EDT    2.56   3.76 -999 -999 -999 -99.9  83.5 -999.9 -9.9 -9.999 -99.9 -99.99 -9.99
2019/10/13 14:30 EDT    2.57   3.78 -999 -999 -999 -99.9  83.5 -999.9 -9.9 -9.999 -99.9 -99.99 -9.99
2019/10/13 14:36 EDT    2.58   3.79 -999 -999 -999 -99.9  83.5 -999.9 -9.9 -9.999 -99.9 -99.99 -9.99
2019/10/13 14:42 EDT    2.59   3.80 -999 -999 -999 -99.9  83.5 -999.9 -9.9 -9.999 -99.9 -99.99 -9.99
2019/10/13 14:48 EDT    2.60   3.80 -999 -999 -999 -99.9  83.5 -999.9 -9.9 -9.999 -99.9 -99.99 -9.99
2019/10/13 14:54 EDT    2.61   3.80 -999 -999 -999 -99.9  83.5 -999.9 -9.9 -9.999 -99.9 -99.99 -9.99
2019/10/13 15:00 EDT    2.61   3.80 -999 -999 -999 -99.9  83.5 -999.9 -9.9 -9.999 -99.9 -99.99 -9.99
2019/10/13 15:06 EDT    2.61   3.80 -999 -999 -999 -99.9  83.5 -999.9 -9.9 -9.999 -99.9 -99.99 -9.99
2019/10/13 15:12 EDT    2.61   3.79 -999 -999 -999 -99.9  83.5 -999.9 -9.9 -9.999 -99.9 -99.99 -9.99
2019/10/13 15:18 EDT    2.60   3.78 -999 -999 -999 -99.9  83.5 -999.9 -9.9 -9.999 -99.9 -99.99 -9.99
2019/10/13 15:24 EDT    2.60   3.76 -999 -999 -999 -99.9  83.5 -999.9 -9.9 -9.999 -99.9 -99.99 -9.99
2019/10/13 15:30 EDT    2.59   3.75 -999 -999 -999 -99.9  83.5 -999.9 -9.9 -9.999 -99.9 -99.99 -9.99
2019/10/13 15:36 EDT    2.58   3.73 -999 -999 -999 -99.9  83.5 -999.9 -9.9 -9.999 -99.9 -99.99 -9.99
2019/10/13 15:42 EDT    2.56   3.71 -999 -999 -999 -99.9  83.5 -999.9 -9.9 -9.999 -99.9 -99.99 -9.99
2019/10/13 15:48 EDT    2.54   3.68 -999 -999 -999 -99.9  83.5 -999.9 -9.9 -9.999 -99.9 -99.99 -9.99
2019/10/13 15:54 EDT    2.52   3.66 -999 -999 -999 -99.9  83.5 -999.9 -9.9 -9.999 -99.9 -99.99 -9.99
2019/10/13 16:00 EDT    2.50   3.63 -999 -999 -999 -99.9  83.5 -999.9 -9.9 -9.999 -99.9 -99.99 -9.99
2019/10/13 16:06 EDT    2.48   3.59 -999 -999 -999 -99.9  83.5 -999.9 -9.9 -9.999 -99.9 -99.99 -9.99
2019/10/13 16:12 EDT    2.45   3.55 -999 -999 -999 -99.9  83.5 -999.9 -9.9 -9.999 -99.9 -99.99 -9.99
2019/10/13 16:18 EDT    2.42   3.51 -999 -999 -999 -99.9  83.5 -999.9 -9.9 -9.999 -99.9 -99.99 -9.99
2019/10/13 16:24 EDT    2.39   3.47 -999 -999 -999 -99.9  83.5 -999.9 -9.9 -9.999 -99.9 -99.99 -9.99
2019/10/13 16:30 EDT    2.36   3.43 -999 -999 -999 -99.9  83.5 -999.9 -9.9 -9.999 -99.9 -99.99 -9.99
2019/10/13 16:36 EDT    2.33   3.38 -999 -999 -999 -99.9  83.3 -999.9 -9.9 -9.999 -99.9 -99.99 -9.99
2019/10/13 16:42 EDT    2.29   3.34 -999 -999 -999 -99.9  83.3 -999.9 -9.9 -9.999 -99.9 -99.99 -9.99
2019/10/13 16:48 EDT    2.25   3.29 -999 -999 -999 -99.9  83.3 -999.9 -9.9 -9.999 -99.9 -99.99 -9.99
2019/10/13 16:54 EDT    2.22   3.24 -999 -999 -999 -99.9  83.3 -999.9 -9.9 -9.999 -99.9 -99.99 -9.99
2019/10/13 17:00 EDT    2.18   3.19 -999 -999 -999 -99.9  83.3 -999.9 -9.9 -9.999 -99.9 -99.99 -9.99
2019/10/13 17:06 EDT    2.14   3.14 -999 -999 -999 -99.9  83.3 -999.9 -9.9 -9.999 -99.9 -99.99 -9.99
2019/10/13 17:12 EDT    2.10   3.10 -999 -999 -999 -99.9  83.3 -999.9 -9.9 -9.999 -99.9 -99.99 -9.99
2019/10/13 17:18 EDT    2.06   3.06 -999 -999 -999 -99.9  83.5 -999.9 -9.9 -9.999 -99.9 -99.99 -9.99
2019/10/13 17:24 EDT    2.02   3.02 -999 -999 -999 -99.9  83.5 -999.9 -9.9 -9.999 -99.9 -99.99 -9.99
2019/10/13 17:30 EDT    1.98   2.98 -999 -999 -999 -99.9  83.5 -999.9 -9.9 -9.999 -99.9 -99.99 -9.99
2019/10/13 17:36 EDT    1.94   2.94 -999 -999 -999 -99.9  83.5 -999.9 -9.9 -9.999 -99.9 -99.99 -9.99
2019/10/13 17:42 EDT    1.90   2.90 -999 -999 -999 -99.9  83.5 -999.9 -9.9 -9.999 -99.9 -99.99 -9.99
2019/10/13 17:48 EDT    1.86   2.87 -999 -999 -999 -99.9  83.5 -999.9 -9.9 -9.999 -99.9 -99.99 -9.99
2019/10/13 17:54 EDT    1.82   2.84 -999 -999 -999 -99.9  83.3 -999.9 -9.9 -9.999 -99.9 -99.99 -9.99
2019/10/13 18:00 EDT    1.78   2.80 -999 -999 -999 -99.9  83.3 -999.9 -9.9 -9.999 -99.9 -99.99 -9.99
2019/10/13 18:06 EDT    1.74   2.77 -999 -999 -999 -99.9  83.3 -999.9 -9.9 -9.999 -99.9 -99.99 -9.99
2019/10/13 18:12 EDT    1.70   2.74 -999 -999 -999 -99.9  83.3 -999.9 -9.9 -9.999 -99.9 -99.99 -9.99
2019/10/13 18:18 EDT    1.66   2.70 -999 -999 -999 -99.9  83.3 -999.9 -9.9 -9.999 -99.9 -99.99 -9.99
2019/10/13 18:24 EDT    1.62   2.66 -999 -999 -999 -99.9  83.3 -999.9 -9.9 -9.999 -99.9 -99.99 -9.99
2019/10/13 18:30 EDT    1.59   2.63 -999 -999 -999 -99.9  83.3 -999.9 -9.9 -9.999 -99.9 -99.99 -9.99
2019/10/13 18:36 EDT    1.55   2.59 -999 -999 -999 -99.9  83.3 -999.9 -9.9 -9.999 -99.9 -99.99 -9.99
2019/10/13 18:42 EDT    1.52   2.55 -999 -999 -999 -99.9  83.1 -999.9 -9.9 -9.999 -99.9 -99.99 -9.99
2019/10/13 18:48 EDT    1.48   2.51 -999 -999 -999 -99.9  83.3 -999.9 -9.9 -9.999 -99.9 -99.99 -9.99
2019/10/13 18:54 EDT    1.45   2.48 -999 -999 -999 -99.9  83.3 -999.9 -9.9 -9.999 -99.9 -99.99 -9.99
2019/10/13 19:00 EDT    1.42   2.44 -999 -999 -999 -99.9  83.1 -999.9 -9.9 -9.999 -99.9 -99.99 -9.99
2019/10/13 19:06 EDT    1.39   2.41 -999 -999 -999 -99.9  83.1 -999.9 -9.9 -9.999 -99.9 -99.99 -9.99
2019/10/13 19:12 EDT    1.36   2.37 -999 -999 -999 -99.9  83.3 -999.9 -9.9 -9.999 -99.9 -99.99 -9.99
2019/10/13 19:18 EDT    1.33   2.33 -999 -999 -999 -99.9  83.3 -999.9 -9.9 -9.999 -99.9 -99.99 -9.99
2019/10/13 19:24 EDT    1.30   2.30 -999 -999 -999 -99.9  83.3 -999.9 -9.9 -9.999 -99.9 -99.99 -9.99
2019/10/13 19:30 EDT    1.27   2.26 -999 -999 -999 -99.9  83.3 -999.9 -9.9 -9.999 -99.9 -99.99 -9.99
2019/10/13 19:36 EDT    1.24   2.23 -999 -999 -999 -99.9  83.3 -999.9 -9.9 -9.999 -99.9 -99.99 -9.99
2019/10/13 19:42 EDT    1.22   2.20 -999 -999 -999 -99.9  83.3 -999.9 -9.9 -9.999 -99.9 -99.99 -9.99
2019/10/13 19:48 EDT    1.19   2.17 -999 -999 -999 -99.9  83.3 -999.9 -9.9 -9.999 -99.9 -99.99 -9.99
2019/10/13 19:54 EDT    1.17   2.13 -999 -999 -999 -99.9  83.3 -999.9 -9.9 -9.999 -99.9 -99.99 -9.99
2019/10/13 20:00 EDT    1.15   2.10 -999 -999 -999 -99.9  83.3 -999.9 -9.9 -9.999 -99.9 -99.99 -9.99
2019/10/13 20:06 EDT    1.13   2.07 -999 -999 -999 -99.9  83.3 -999.9 -9.9 -9.999 -99.9 -99.99 -9.99
2019/10/13 20:12 EDT    1.11   2.05 -999 -999 -999 -99.9  83.3 -999.9 -9.9 -9.999 -99.9 -99.99 -9.99
2019/10/13 20:18 EDT    1.09   2.02 -999 -999 -999 -99.9  83.3 -999.9 -9.9 -9.999 -99.9 -99.99 -9.99
2019/10/13 20:24 EDT    1.08   2.00 -999 -999 -999 -99.9  83.3 -999.9 -9.9 -9.999 -99.9 -99.99 -9.99
2019/10/13 20:30 EDT    1.06   1.98 -999 -999 -999 -99.9  83.3 -999.9 -9.9 -9.999 -99.9 -99.99 -9.99
2019/10/13 20:36 EDT    1.05   1.96 -999 -999 -999 -99.9  83.5 -999.9 -9.9 -9.999 -99.9 -99.99 -9.99
2019/10/13 20:42 EDT    1.04   1.95 -999 -999 -999 -99.9  83.5 -999.9 -9.9 -9.999 -99.9 -99.99 -9.99
2019/10/13 20:48 EDT    1.03   1.94 -999 -999 -999 -99.9  83.5 -999.9 -9.9 -9.999 -99.9 -99.99 -9.99
2019/10/13 20:54 EDT    1.03   1.93 -999 -999 -999 -99.9  83.5 -999.9 -9.9 -9.999 -99.9 -99.99 -9.99
2019/10/13 21:00 EDT    1.03   1.93 -999 -999 -999 -99.9  83.7 -999.9 -9.9 -9.999 -99.9 -99.99 -9.99
2019/10/13 21:06 EDT    1.03   1.94 -999 -999 -999 -99.9  83.7 -999.9 -9.9 -9.999 -99.9 -99.99 -9.99
2019/10/13 21:12 EDT    1.03   1.94 -999 -999 -999 -99.9  83.8 -999.9 -9.9 -9.999 -99.9 -99.99 -9.99
2019/10/13 21:18 EDT    1.04   1.96 -999 -999 -999 -99.9  84.0 -999.9 -9.9 -9.999 -99.9 -99.99 -9.99
2019/10/13 21:24 EDT    1.05   1.98 -999 -999 -999 -99.9  84.0 -999.9 -9.9 -9.999 -99.9 -99.99 -9.99
2019/10/13 21:30 EDT    1.06   2.00 -999 -999 -999 -99.9  84.0 -999.9 -9.9 -9.999 -99.9 -99.99 -9.99
2019/10/13 21:36 EDT    1.08   2.02 -999 -999 -999 -99.9  84.2 -999.9 -9.9 -9.999 -99.9 -99.99 -9.99
2019/10/13 21:42 EDT    1.10   2.05 -999 -999 -999 -99.9  84.2 -999.9 -9.9 -9.999 -99.9 -99.99 -9.99
2019/10/13 21:48 EDT    1.12   2.08 -999 -999 -999 -99.9  84.4 -999.9 -9.9 -9.999 -99.9 -99.99 -9.99
2019/10/13 21:54 EDT    1.15   2.12 -999 -999 -999 -99.9  84.4 -999.9 -9.9 -9.999 -99.9 -99.99 -9.99
2019/10/13 22:00 EDT    1.17   2.16 -999 -999 -999 -99.9  84.4 -999.9 -9.9 -9.999 -99.9 -99.99 -9.99
2019/10/13 22:06 EDT    1.21   2.21 -999 -999 -999 -99.9  84.4 -999.9 -9.9 -9.999 -99.9 -99.99 -9.99
2019/10/13 22:12 EDT    1.24   2.26 -999 -999 -999 -99.9  84.4 -999.9 -9.9 -9.999 -99.9 -99.99 -9.99
2019/10/13 22:18 EDT    1.28   2.31 -999 -999 -999 -99.9  84.4 -999.9 -9.9 -9.999 -99.9 -99.99 -9.99
2019/10/13 22:24 EDT    1.32   2.37 -999 -999 -999 -99.9  84.4 -999.9 -9.9 -9.999 -99.9 -99.99 -9.99
2019/10/13 22:30 EDT    1.36   2.43 -999 -999 -999 -99.9  84.6 -999.9 -9.9 -9.999 -99.9 -99.99 -9.99
2019/10/13 22:36 EDT    1.40   2.49 -999 -999 -999 -99.9  84.7 -999.9 -9.9 -9.999 -99.9 -99.99 -9.99
2019/10/13 22:42 EDT    1.45   2.55 -999 -999 -999 -99.9  84.7 -999.9 -9.9 -9.999 -99.9 -99.99 -9.99
2019/10/13 22:48 EDT    1.49   2.61 -999 -999 -999 -99.9  84.4 -999.9 -9.9 -9.999 -99.9 -99.99 -9.99
2019/10/13 22:54 EDT    1.54   2.68 -999 -999 -999 -99.9  84.2 -999.9 -9.9 -9.999 -99.9 -99.99 -9.99
2019/10/13 23:00 EDT    1.59   2.75 -999 -999 -999 -99.9  84.2 -999.9 -9.9 -9.999 -99.9 -99.99 -9.99
2019/10/13 23:06 EDT    1.64   2.80 -999 -999 -999 -99.9  84.0 -999.9 -9.9 -9.999 -99.9 -99.99 -9.99
2019/10/13 23:12 EDT    1.69   2.85 -999 -999 -999 -99.9  84.0 -999.9 -9.9 -9.999 -99.9 -99.99 -9.99
2019/10/13 23:18 EDT    1.74   2.91 -999 -999 -999 -99.9  84.4 -999.9 -9.9 -9.999 -99.9 -99.99 -9.99
2019/10/13 23:24 EDT    1.79   2.98 -999 -999 -999 -99.9  84.7 -999.9 -9.9 -9.999 -99.9 -99.99 -9.99
2019/10/13 23:30 EDT    1.85   3.03 -999 -999 -999 -99.9  84.7 -999.9 -9.9 -9.999 -99.9 -99.99 -9.99
2019/10/13 23:36 EDT    1.90   3.08 -999 -999 -999 -99.9  84.7 -999.9 -9.9 -9.999 -99.9 -99.99 -9.99
2019/10/13 23:42 EDT    1.95   3.13 -999 -999 -999 -99.9  84.7 -999.9 -9.9 -9.999 -99.9 -99.99 -9.99
2019/10/13 23:48 EDT    1.99   3.18 -999 -999 -999 -99.9  84.7 -999.9 -9.9 -9.999 -99.9 -99.99 -9.99
2019/10/13 23:54 EDT    2.04   3.22 -999 -999 -999 -99.9  84.7 -999.9 -9.9 -9.999 -99.9 -99.99 -9.99
2019/10/14 00:00 EDT    2.09   3.25 -999 -999 -999 -99.9  84.7 -999.9 -9.9 -9.999 -99.9 -99.99 -9.99
2019/10/14 00:06 EDT    2.13   3.30 -999 -999 -999 -99.9  84.7 -999.9 -9.9 -9.999 -99.9 -99.99 -9.99
2019/10/14 00:12 EDT    2.18   3.34 -999 -999 -999 -99.9  84.9 -999.9 -9.9 -9.999 -99.9 -99.99 -9.99
2019/10/14 00:18 EDT    2.22   3.38 -999 -999 -999 -99.9  84.9 -999.9 -9.9 -9.999 -99.9 -99.99 -9.99
2019/10/14 00:24 EDT    2.26   3.41 -999 -999 -999 -99.9  84.9 -999.9 -9.9 -9.999 -99.9 -99.99 -9.99
2019/10/14 00:30 EDT    2.30   3.44 -999 -999 -999 -99.9  84.9 -999.9 -9.9 -9.999 -99.9 -99.99 -9.99
2019/10/14 00:36 EDT    2.33   3.47 -999 -999 -999 -99.9  84.9 -999.9 -9.9 -9.999 -99.9 -99.99 -9.99
2019/10/14 00:42 EDT    2.37   3.49 -999 -999 -999 -99.9  84.9 -999.9 -9.9 -9.999 -99.9 -99.99 -9.99
2019/10/14 00:48 EDT    2.40   3.52 -999 -999 -999 -99.9  84.9 -999.9 -9.9 -9.999 -99.9 -99.99 -9.99
2019/10/14 00:54 EDT    2.43   3.55 -999 -999 -999 -99.9  84.9 -999.9 -9.9 -9.999 -99.9 -99.99 -9.99
2019/10/14 01:00 EDT    2.46   3.58 -999 -999 -999 -99.9  84.9 -999.9 -9.9 -9.999 -99.9 -99.99 -9.99
2019/10/14 01:06 EDT    2.48   3.61 -999 -999 -999 -99.9  84.9 -999.9 -9.9 -9.999 -99.9 -99.99 -9.99
2019/10/14 01:12 EDT    2.51   3.65 -999 -999 -999 -99.9  84.9 -999.9 -9.9 -9.999 -99.9 -99.99 -9.99
2019/10/14 01:18 EDT    2.53   3.68 -999 -999 -999 -99.9  84.9 -999.9 -9.9 -9.999 -99.9 -99.99 -9.99
2019/10/14 01:24 EDT    2.55   3.72 -999 -999 -999 -99.9  84.9 -999.9 -9.9 -9.999 -99.9 -99.99 -9.99
2019/10/14 01:30 EDT    2.57   3.75 -999 -999 -999 -99.9  84.7 -999.9 -9.9 -9.999 -99.9 -99.99 -9.99
2019/10/14 01:36 EDT    2.59   3.77 -999 -999 -999 -99.9  84.7 -999.9 -9.9 -9.999 -99.9 -99.99 -9.99
2019/10/14 01:42 EDT    2.60   3.81 -999 -999 -999 -99.9  84.6 -999.9 -9.9 -9.999 -99.9 -99.99 -9.99
2019/10/14 01:48 EDT    2.61   3.83 -999 -999 -999 -99.9  84.6 -999.9 -9.9 -9.999 -99.9 -99.99 -9.99
2019/10/14 01:54 EDT    2.63   3.85 -999 -999 -999 -99.9  84.6 -999.9 -9.9 -9.999 -99.9 -99.99 -9.99
2019/10/14 02:00 EDT    2.64   3.88 -999 -999 -999 -99.9  84.6 -999.9 -9.9 -9.999 -99.9 -99.99 -9.99
2019/10/14 02:06 EDT    2.64   3.89 -999 -999 -999 -99.9  84.6 -999.9 -9.9 -9.999 -99.9 -99.99 -9.99
2019/10/14 02:12 EDT    2.65   3.91 -999 -999 -999 -99.9  84.6 -999.9 -9.9 -9.999 -99.9 -99.99 -9.99
2019/10/14 02:18 EDT    2.66   3.92 -999 -999 -999 -99.9  84.6 -999.9 -9.9 -9.999 -99.9 -99.99 -9.99
2019/10/14 02:24 EDT    2.66   3.96 -999 -999 -999 -99.9  84.4 -999.9 -9.9 -9.999 -99.9 -99.99 -9.99
2019/10/14 02:30 EDT    2.66   3.96 -999 -999 -999 -99.9  84.4 -999.9 -9.9 -9.999 -99.9 -99.99 -9.99
2019/10/14 02:36 EDT    2.66   3.97 -999 -999 -999 -99.9  84.4 -999.9 -9.9 -9.999 -99.9 -99.99 -9.99
2019/10/14 02:42 EDT    2.66   3.99 -999 -999 -999 -99.9  84.4 -999.9 -9.9 -9.999 -99.9 -99.99 -9.99
2019/10/14 02:48 EDT    2.65   4.00 -999 -999 -999 -99.9  84.4 -999.9 -9.9 -9.999 -99.9 -99.99 -9.99
2019/10/14 02:54 EDT    2.65   4.00 -999 -999 -999 -99.9  84.4 -999.9 -9.9 -9.999 -99.9 -99.99 -9.99
2019/10/14 03:00 EDT    2.64   4.00 -999 -999 -999 -99.9  84.4 -999.9 -9.9 -9.999 -99.9 -99.99 -9.99
2019/10/14 03:06 EDT    2.63   4.02 -999 -999 -999 -99.9  84.2 -999.9 -9.9 -9.999 -99.9 -99.99 -9.99
2019/10/14 03:12 EDT    2.61   4.02 -999 -999 -999 -99.9  84.2 -999.9 -9.9 -9.999 -99.9 -99.99 -9.99
2019/10/14 03:18 EDT    2.60   4.02 -999 -999 -999 -99.9  84.2 -999.9 -9.9 -9.999 -99.9 -99.99 -9.99
2019/10/14 03:24 EDT    2.58   4.02 -999 -999 -999 -99.9  84.2 -999.9 -9.9 -9.999 -99.9 -99.99 -9.99
2019/10/14 03:30 EDT    2.56   4.02 -999 -999 -999 -99.9  84.2 -999.9 -9.9 -9.999 -99.9 -99.99 -9.99
2019/10/14 03:36 EDT    2.54   4.02 -999 -999 -999 -99.9  84.2 -999.9 -9.9 -9.999 -99.9 -99.99 -9.99
2019/10/14 03:42 EDT    2.52   4.01 -999 -999 -999 -99.9  84.2 -999.9 -9.9 -9.999 -99.9 -99.99 -9.99
2019/10/14 03:48 EDT    2.49   3.99 -999 -999 -999 -99.9  84.2 -999.9 -9.9 -9.999 -99.9 -99.99 -9.99
2019/10/14 03:54 EDT    2.46   3.97 -999 -999 -999 -99.9  84.2 -999.9 -9.9 -9.999 -99.9 -99.99 -9.99
2019/10/14 04:00 EDT    2.43   3.93 -999 -999 -999 -99.9  84.0 -999.9 -9.9 -9.999 -99.9 -99.99 -9.99
2019/10/14 04:06 EDT    2.40   3.91 -999 -999 -999 -99.9  83.8 -999.9 -9.9 -9.999 -99.9 -99.99 -9.99
2019/10/14 04:12 EDT    2.37   3.89 -999 -999 -999 -99.9  83.8 -999.9 -9.9 -9.999 -99.9 -99.99 -9.99
2019/10/14 04:18 EDT    2.33   3.84 -999 -999 -999 -99.9  83.8 -999.9 -9.9 -9.999 -99.9 -99.99 -9.99
2019/10/14 04:24 EDT    2.29   3.77 -999 -999 -999 -99.9  83.8 -999.9 -9.9 -9.999 -99.9 -99.99 -9.99
2019/10/14 04:30 EDT    2.25   3.72 -999 -999 -999 -99.9  83.8 -999.9 -9.9 -9.999 -99.9 -99.99 -9.99
2019/10/14 04:36 EDT    2.20   3.67 -999 -999 -999 -99.9  83.8 -999.9 -9.9 -9.999 -99.9 -99.99 -9.99
2019/10/14 04:42 EDT    2.16   3.60 -999 -999 -999 -99.9  84.0 -999.9 -9.9 -9.999 -99.9 -99.99 -9.99
2019/10/14 04:48 EDT    2.11   3.52 -999 -999 -999 -99.9  84.0 -999.9 -9.9 -9.999 -99.9 -99.99 -9.99
2019/10/14 04:54 EDT    2.06   3.46 -999 -999 -999 -99.9  84.0 -999.9 -9.9 -9.999 -99.9 -99.99 -9.99
2019/10/14 05:00 EDT    2.01   3.39 -999 -999 -999 -99.9  84.0 -999.9 -9.9 -9.999 -99.9 -99.99 -9.99
2019/10/14 05:06 EDT    1.96   3.31 -999 -999 -999 -99.9  84.0 -999.9 -9.9 -9.999 -99.9 -99.99 -9.99
2019/10/14 05:12 EDT    1.91   3.25 -999 -999 -999 -99.9  84.0 -999.9 -9.9 -9.999 -99.9 -99.99 -9.99
2019/10/14 05:18 EDT    1.86   3.19 -999 -999 -999 -99.9  84.0 -999.9 -9.9 -9.999 -99.9 -99.99 -9.99
2019/10/14 05:24 EDT    1.81   3.12 -999 -999 -999 -99.9  84.0 -999.9 -9.9 -9.999 -99.9 -99.99 -9.99
2019/10/14 05:30 EDT    1.75   3.06 -999 -999 -999 -99.9  84.0 -999.9 -9.9 -9.999 -99.9 -99.99 -9.99
2019/10/14 05:36 EDT    1.70   3.01 -999 -999 -999 -99.9  84.0 -999.9 -9.9 -9.999 -99.9 -99.99 -9.99
2019/10/14 05:42 EDT    1.64   2.96 -999 -999 -999 -99.9  84.0 -999.9 -9.9 -9.999 -99.9 -99.99 -9.99
2019/10/14 05:48 EDT    1.59   2.91 -999 -999 -999 -99.9  84.0 -999.9 -9.9 -9.999 -99.9 -99.99 -9.99
2019/10/14 05:54 EDT    1.54   2.86 -999 -999 -999 -99.9  84.0 -999.9 -9.9 -9.999 -99.9 -99.99 -9.99
2019/10/14 06:00 EDT    1.48   2.82 -999 -999 -999 -99.9  84.0 -999.9 -9.9 -9.999 -99.9 -99.99 -9.99
2019/10/14 06:06 EDT    1.43   2.79 -999 -999 -999 -99.9  84.0 -999.9 -9.9 -9.999 -99.9 -99.99 -9.99
2019/10/14 06:12 EDT    1.38   2.75 -999 -999 -999 -99.9  84.0 -999.9 -9.9 -9.999 -99.9 -99.99 -9.99
2019/10/14 06:18 EDT    1.33   2.71 -999 -999 -999 -99.9  84.0 -999.9 -9.9 -9.999 -99.9 -99.99 -9.99
2019/10/14 06:24 EDT    1.28   2.67 -999 -999 -999 -99.9  84.0 -999.9 -9.9 -9.999 -99.9 -99.99 -9.99
2019/10/14 06:30 EDT    1.23   2.63 -999 -999 -999 -99.9  84.0 -999.9 -9.9 -9.999 -99.9 -99.99 -9.99
2019/10/14 06:36 EDT    1.18   2.59 -999 -999 -999 -99.9  84.0 -999.9 -9.9 -9.999 -99.9 -99.99 -9.99
2019/10/14 06:42 EDT    1.13   2.55 -999 -999 -999 -99.9  84.0 -999.9 -9.9 -9.999 -99.9 -99.99 -9.99
2019/10/14 06:48 EDT    1.08   2.50 -999 -999 -999 -99.9  84.0 -999.9 -9.9 -9.999 -99.9 -99.99 -9.99
2019/10/14 06:54 EDT    1.04   2.46 -999 -999 -999 -99.9  84.0 -999.9 -9.9 -9.999 -99.9 -99.99 -9.99
2019/10/14 07:00 EDT    0.99   2.43 -999 -999 -999 -99.9  84.0 -999.9 -9.9 -9.999 -99.9 -99.99 -9.99
2019/10/14 07:06 EDT    0.95   2.38 -999 -999 -999 -99.9  84.0 -999.9 -9.9 -9.999 -99.9 -99.99 -9.99
2019/10/14 07:12 EDT    0.91   2.33 -999 -999 -999 -99.9  84.0 -999.9 -9.9 -9.999 -99.9 -99.99 -9.99
2019/10/14 07:18 EDT    0.87   2.29 -999 -999 -999 -99.9  84.0 -999.9 -9.9 -9.999 -99.9 -99.99 -9.99
2019/10/14 07:24 EDT    0.83   2.25 -999 -999 -999 -99.9  84.0 -999.9 -9.9 -9.999 -99.9 -99.99 -9.99
2019/10/14 07:30 EDT    0.79   2.22 -999 -999 -999 -99.9  84.0 -999.9 -9.9 -9.999 -99.9 -99.99 -9.99
2019/10/14 07:36 EDT    0.75   2.19 -999 -999 -999 -99.9  84.0 -999.9 -9.9 -9.999 -99.9 -99.99 -9.99
2019/10/14 07:42 EDT    0.71   2.13 -999 -999 -999 -99.9  84.0 -999.9 -9.9 -9.999 -99.9 -99.99 -9.99
2019/10/14 07:48 EDT    0.68   2.08 -999 -999 -999 -99.9  83.8 -999.9 -9.9 -9.999 -99.9 -99.99 -9.99
2019/10/14 07:54 EDT    0.65   2.05 -999 -999 -999 -99.9  83.7 -999.9 -9.9 -9.999 -99.9 -99.99 -9.99
2019/10/14 08:00 EDT    0.61   2.03 -999 -999 -999 -99.9  83.7 -999.9 -9.9 -9.999 -99.9 -99.99 -9.99
2019/10/14 08:06 EDT    0.58   1.98 -999 -999 -999 -99.9  83.7 -999.9 -9.9 -9.999 -99.9 -99.99 -9.99
2019/10/14 08:12 EDT    0.55   1.93 -999 -999 -999 -99.9  83.8 -999.9 -9.9 -9.999 -99.9 -99.99 -9.99
2019/10/14 08:18 EDT    0.52   1.89 -999 -999 -999 -99.9  83.8 -999.9 -9.9 -9.999 -99.9 -99.99 -9.99
2019/10/14 08:24 EDT    0.50   1.86 -999 -999 -999 -99.9  83.8 -999.9 -9.9 -9.999 -99.9 -99.99 -9.99
2019/10/14 08:30 EDT    0.47   1.83 -999 -999 -999 -99.9  83.8 -999.9 -9.9 -9.999 -99.9 -99.99 -9.99
2019/10/14 08:36 EDT    0.45   1.79 -999 -999 -999 -99.9  83.8 -999.9 -9.9 -9.999 -99.9 -99.99 -9.99
2019/10/14 08:42 EDT    0.43   1.76 -999 -999 -999 -99.9  83.8 -999.9 -9.9 -9.999 -99.9 -99.99 -9.99
2019/10/14 08:48 EDT    0.41   1.74 -999 -999 -999 -99.9  83.8 -999.9 -9.9 -9.999 -99.9 -99.99 -9.99
2019/10/14 08:54 EDT    0.40   1.71 -999 -999 -999 -99.9  83.8 -999.9 -9.9 -9.999 -99.9 -99.99 -9.99
2019/10/14 09:00 EDT    0.38   1.68 -999 -999 -999 -99.9  83.7 -999.9 -9.9 -9.999 -99.9 -99.99 -9.99
2019/10/14 09:06 EDT    0.37   1.67 -999 -999 -999 -99.9  83.7 -999.9 -9.9 -9.999 -99.9 -99.99 -9.99
2019/10/14 09:12 EDT    0.36   1.65 -999 -999 -999 -99.9  83.7 -999.9 -9.9 -9.999 -99.9 -99.99 -9.99
2019/10/14 09:18 EDT    0.36   1.64 -999 -999 -999 -99.9  83.7 -999.9 -9.9 -9.999 -99.9 -99.99 -9.99
2019/10/14 09:24 EDT    0.35   1.63 -999 -999 -999 -99.9  83.7 -999.9 -9.9 -9.999 -99.9 -99.99 -9.99
2019/10/14 09:30 EDT    0.35   1.62 -999 -999 -999 -99.9  83.7 -999.9 -9.9 -9.999 -99.9 -99.99 -9.99
2019/10/14 09:36 EDT    0.36   1.63 -999 -999 -999 -99.9  83.7 -999.9 -9.9 -9.999 -99.9 -99.99 -9.99
2019/10/14 09:42 EDT    0.36   1.63 -999 -999 -999 -99.9  83.7 -999.9 -9.9 -9.999 -99.9 -99.99 -9.99
2019/10/14 09:48 EDT    0.37   1.63 -999 -999 -999 -99.9  83.3 -999.9 -9.9 -9.999 -99.9 -99.99 -9.99
2019/10/14 09:54 EDT    0.39   1.64 -999 -999 -999 -99.9  83.3 -999.9 -9.9 -9.999 -99.9 -99.99 -9.99
2019/10/14 10:00 EDT    0.41   1.66 -999 -999 -999 -99.9  83.1 -999.9 -9.9 -9.999 -99.9 -99.99 -9.99
2019/10/14 10:06 EDT    0.43   1.68 -999 -999 -999 -99.9  83.1 -999.9 -9.9 -9.999 -99.9 -99.99 -9.99
2019/10/14 10:12 EDT    0.45   1.70 -999 -999 -999 -99.9  83.1 -999.9 -9.9 -9.999 -99.9 -99.99 -9.99
2019/10/14 10:18 EDT    0.48   1.74 -999 -999 -999 -99.9  83.1 -999.9 -9.9 -9.999 -99.9 -99.99 -9.99
2019/10/14 10:24 EDT    0.51   1.78 -999 -999 -999 -99.9  83.1 -999.9 -9.9 -9.999 -99.9 -99.99 -9.99
2019/10/14 10:30 EDT    0.54   1.83 -999 -999 -999 -99.9  83.1 -999.9 -9.9 -9.999 -99.9 -99.99 -9.99
2019/10/14 10:36 EDT    0.58   1.89 -999 -999 -999 -99.9  83.1 -999.9 -9.9 -9.999 -99.9 -99.99 -9.99
2019/10/14 10:42 EDT    0.62   1.94 -999 -999 -999 -99.9  83.1 -999.9 -9.9 -9.999 -99.9 -99.99 -9.99
2019/10/14 10:48 EDT    0.66   2.02 -999 -999 -999 -99.9  83.1 -999.9 -9.9 -9.999 -99.9 -99.99 -9.99
2019/10/14 10:54 EDT    0.71   2.10 -999 -999 -999 -99.9  83.1 -999.9 -9.9 -9.999 -99.9 -99.99 -9.99
2019/10/14 11:00 EDT    0.76   2.17 -999 -999 -999 -99.9  83.1 -999.9 -9.9 -9.999 -99.9 -99.99 -9.99
2019/10/14 11:06 EDT    0.81   2.25 -999 -999 -999 -99.9  83.7 -999.9 -9.9 -9.999 -99.9 -99.99 -9.99
2019/10/14 11:12 EDT    0.86   2.34 -999 -999 -999 -99.9  84.4 -999.9 -9.9 -9.999 -99.9 -99.99 -9.99
2019/10/14 11:18 EDT    0.92   2.43 -999 -999 -999 -99.9  84.9 -999.9 -9.9 -9.999 -99.9 -99.99 -9.99
2019/10/14 11:24 EDT    0.97   2.50 -999 -999 -999 -99.9  85.5 -999.9 -9.9 -9.999 -99.9 -99.99 -9.99
2019/10/14 11:30 EDT    1.03   2.58 -999 -999 -999 -99.9  85.8 -999.9 -9.9 -9.999 -99.9 -99.99 -9.99
2019/10/14 11:36 EDT    1.09   2.66 -999 -999 -999 -99.9  86.4 -999.9 -9.9 -9.999 -99.9 -99.99 -9.99
2019/10/14 11:42 EDT    1.14   2.73 -999 -999 -999 -99.9  86.5 -999.9 -9.9 -9.999 -99.9 -99.99 -9.99
2019/10/14 11:48 EDT    1.20   2.80 -999 -999 -999 -99.9  86.7 -999.9 -9.9 -9.999 -99.9 -99.99 -9.99
2019/10/14 11:54 EDT    1.26   2.84 -999 -999 -999 -99.9  86.7 -999.9 -9.9 -9.999 -99.9 -99.99 -9.99
2019/10/14 12:00 EDT    1.32   2.90 -999 -999 -999 -99.9  86.7 -999.9 -9.9 -9.999 -99.9 -99.99 -9.99
2019/10/14 12:06 EDT    1.38   2.96 -999 -999 -999 -99.9  86.7 -999.9 -9.9 -9.999 -99.9 -99.99 -9.99
2019/10/14 12:12 EDT    1.44   3.00 -999 -999 -999 -99.9  86.7 -999.9 -9.9 -9.999 -99.9 -99.99 -9.99
2019/10/14 12:18 EDT    1.50   3.04 -999 -999 -999 -99.9  86.7 -999.9 -9.9 -9.999 -99.9 -99.99 -9.99
2019/10/14 12:24 EDT    1.55   3.07 -999 -999 -999 -99.9  86.7 -999.9 -9.9 -9.999 -99.9 -99.99 -9.99
2019/10/14 12:30 EDT    1.61   3.12 -999 -999 -999 -99.9  86.7 -999.9 -9.9 -9.999 -99.9 -99.99 -9.99
2019/10/14 12:36 EDT    1.66   3.18 -999 -999 -999 -99.9  86.5 -999.9 -9.9 -9.999 -99.9 -99.99 -9.99
2019/10/14 12:42 EDT    1.71   3.20 -999 -999 -999 -99.9  86.5 -999.9 -9.9 -9.999 -99.9 -99.99 -9.99
2019/10/14 12:48 EDT    1.77   3.24 -999 -999 -999 -99.9  86.7 -999.9 -9.9 -9.999 -99.9 -99.99 -9.99
2019/10/14 12:54 EDT    1.81   3.28 -999 -999 -999 -99.9  86.9 -999.9 -9.9 -9.999 -99.9 -99.99 -9.99
2019/10/14 13:00 EDT    1.86   3.32 -999 -999 -999 -99.9  86.9 -999.9 -9.9 -9.999 -99.9 -99.99 -9.99
2019/10/14 13:06 EDT    1.91   3.35 -999 -999 -999 -99.9  86.9 -999.9 -9.9 -9.999 -99.9 -99.99 -9.99
2019/10/14 13:12 EDT    1.95   3.40 -999 -999 -999 -99.9  86.9 -999.9 -9.9 -9.999 -99.9 -99.99 -9.99
2019/10/14 13:18 EDT    2.00   3.43 -999 -999 -999 -99.9  86.9 -999.9 -9.9 -9.999 -99.9 -99.99 -9.99
2019/10/14 13:24 EDT    2.04   3.45 -999 -999 -999 -99.9  86.9 -999.9 -9.9 -9.999 -99.9 -99.99 -9.99
2019/10/14 13:30 EDT    2.08   3.47 -999 -999 -999 -99.9  86.9 -999.9 -9.9 -9.999 -99.9 -99.99 -9.99
2019/10/14 13:36 EDT    2.11   3.51 -999 -999 -999 -99.9  86.9 -999.9 -9.9 -9.999 -99.9 -99.99 -9.99
2019/10/14 13:42 EDT    2.15   3.54 -999 -999 -999 -99.9  86.7 -999.9 -9.9 -9.999 -99.9 -99.99 -9.99
2019/10/14 13:48 EDT    2.18   3.57 -999 -999 -999 -99.9  86.0 -999.9 -9.9 -9.999 -99.9 -99.99 -9.99
2019/10/14 13:54 EDT    2.21   3.60 -999 -999 -999 -99.9  85.3 -999.9 -9.9 -9.999 -99.9 -99.99 -9.99
2019/10/14 14:00 EDT    2.24   3.63 -999 -999 -999 -99.9  84.9 -999.9 -9.9 -9.999 -99.9 -99.99 -9.99
2019/10/14 14:06 EDT    2.27   3.64 -999 -999 -999 -99.9  84.9 -999.9 -9.9 -9.999 -99.9 -99.99 -9.99
2019/10/14 14:12 EDT    2.30   3.67 -999 -999 -999 -99.9  84.7 -999.9 -9.9 -9.999 -99.9 -99.99 -9.99
2019/10/14 14:18 EDT    2.33   3.72 -999 -999 -999 -99.9  84.6 -999.9 -9.9 -9.999 -99.9 -99.99 -9.99
2019/10/14 14:24 EDT    2.35   3.74 -999 -999 -999 -99.9  84.6 -999.9 -9.9 -9.999 -99.9 -99.99 -9.99
2019/10/14 14:30 EDT    2.37   3.75 -999 -999 -999 -99.9  83.8 -999.9 -9.9 -9.999 -99.9 -99.99 -9.99
2019/10/14 14:36 EDT    2.39   3.78 -999 -999 -999 -99.9  83.7 -999.9 -9.9 -9.999 -99.9 -99.99 -9.99
2019/10/14 14:42 EDT    2.41   3.79 -999 -999 -999 -99.9  83.7 -999.9 -9.9 -9.999 -99.9 -99.99 -9.99
2019/10/14 14:48 EDT    2.43   3.84 -999 -999 -999 -99.9  83.7 -999.9 -9.9 -9.999 -99.9 -99.99 -9.99
2019/10/14 14:54 EDT    2.45   3.85 -999 -999 -999 -99.9  83.7 -999.9 -9.9 -9.999 -99.9 -99.99 -9.99
2019/10/14 15:00 EDT    2.46   3.85 -999 -999 -999 -99.9  83.7 -999.9 -9.9 -9.999 -99.9 -99.99 -9.99
2019/10/14 15:06 EDT    2.48   3.87 -999 -999 -999 -99.9  83.7 -999.9 -9.9 -9.999 -99.9 -99.99 -9.99
2019/10/14 15:12 EDT    2.49   3.90 -999 -999 -999 -99.9  83.5 -999.9 -9.9 -9.999 -99.9 -99.99 -9.99
2019/10/14 15:18 EDT    2.50   3.90 -999 -999 -999 -99.9  83.5 -999.9 -9.9 -9.999 -99.9 -99.99 -9.99
2019/10/14 15:24 EDT    2.50   3.89 -999 -999 -999 -99.9  83.5 -999.9 -9.9 -9.999 -99.9 -99.99 -9.99
2019/10/14 15:30 EDT    2.51   3.90 -999 -999 -999 -99.9  83.5 -999.9 -9.9 -9.999 -99.9 -99.99 -9.99
2019/10/14 15:36 EDT    2.51   3.91 -999 -999 -999 -99.9  83.5 -999.9 -9.9 -9.999 -99.9 -99.99 -9.99
2019/10/14 15:42 EDT    2.51   3.90 -999 -999 -999 -99.9  83.5 -999.9 -9.9 -9.999 -99.9 -99.99 -9.99
2019/10/14 15:48 EDT    2.51   3.89 -999 -999 -999 -99.9  83.5 -999.9 -9.9 -9.999 -99.9 -99.99 -9.99
2019/10/14 15:54 EDT    2.51   3.90 -999 -999 -999 -99.9  83.5 -999.9 -9.9 -9.999 -99.9 -99.99 -9.99
2019/10/14 16:00 EDT    2.50   3.89 -999 -999 -999 -99.9  83.5 -999.9 -9.9 -9.999 -99.9 -99.99 -9.99
2019/10/14 16:06 EDT    2.49   3.88 -999 -999 -999 -99.9  83.5 -999.9 -9.9 -9.999 -99.9 -99.99 -9.99
2019/10/14 16:12 EDT    2.48   3.87 -999 -999 -999 -99.9  83.5 -999.9 -9.9 -9.999 -99.9 -99.99 -9.99
2019/10/14 16:18 EDT    2.47   3.85 -999 -999 -999 -99.9  83.5 -999.9 -9.9 -9.999 -99.9 -99.99 -9.99
2019/10/14 16:24 EDT    2.45   3.83 -999 -999 -999 -99.9  83.5 -999.9 -9.9 -9.999 -99.9 -99.99 -9.99
2019/10/14 16:30 EDT    2.44   3.82 -999 -999 -999 -99.9  83.5 -999.9 -9.9 -9.999 -99.9 -99.99 -9.99
2019/10/14 16:36 EDT    2.42   3.80 -999 -999 -999 -99.9  83.5 -999.9 -9.9 -9.999 -99.9 -99.99 -9.99
2019/10/14 16:42 EDT    2.39   3.77 -999 -999 -999 -99.9  83.5 -999.9 -9.9 -9.999 -99.9 -99.99 -9.99
2019/10/14 16:48 EDT    2.37   3.74 -999 -999 -999 -99.9  83.5 -999.9 -9.9 -9.999 -99.9 -99.99 -9.99
2019/10/14 16:54 EDT    2.34   3.71 -999 -999 -999 -99.9  83.7 -999.9 -9.9 -9.999 -99.9 -99.99 -9.99
2019/10/14 17:00 EDT    2.31   3.68 -999 -999 -999 -99.9  83.7 -999.9 -9.9 -9.999 -99.9 -99.99 -9.99
2019/10/14 17:06 EDT    2.28   3.64 -999 -999 -999 -99.9  83.5 -999.9 -9.9 -9.999 -99.9 -99.99 -9.99
2019/10/14 17:12 EDT    2.25   3.60 -999 -999 -999 -99.9  83.5 -999.9 -9.9 -9.999 -99.9 -99.99 -9.99
2019/10/14 17:18 EDT    2.22   3.56 -999 -999 -999 -99.9  83.5 -999.9 -9.9 -9.999 -99.9 -99.99 -9.99
2019/10/14 17:24 EDT    2.18   3.52 -999 -999 -999 -99.9  83.7 -999.9 -9.9 -9.999 -99.9 -99.99 -9.99
2019/10/14 17:30 EDT    2.15   3.47 -999 -999 -999 -99.9  83.7 -999.9 -9.9 -9.999 -99.9 -99.99 -9.99
2019/10/14 17:36 EDT    2.11   3.44 -999 -999 -999 -99.9  83.7 -999.9 -9.9 -9.999 -99.9 -99.99 -9.99
2019/10/14 17:42 EDT    2.07   3.39 -999 -999 -999 -99.9  83.8 -999.9 -9.9 -9.999 -99.9 -99.99 -9.99
2019/10/14 17:48 EDT    2.03   3.35 -999 -999 -999 -99.9  83.8 -999.9 -9.9 -9.999 -99.9 -99.99 -9.99
2019/10/14 17:54 EDT    1.99   3.31 -999 -999 -999 -99.9  83.8 -999.9 -9.9 -9.999 -99.9 -99.99 -9.99
2019/10/14 18:00 EDT    1.96   3.26 -999 -999 -999 -99.9  83.8 -999.9 -9.9 -9.999 -99.9 -99.99 -9.99
2019/10/14 18:06 EDT    1.92   3.22 -999 -999 -999 -99.9  83.8 -999.9 -9.9 -9.999 -99.9 -99.99 -9.99
2019/10/14 18:12 EDT    1.88   3.18 -999 -999 -999 -99.9  83.8 -999.9 -9.9 -9.999 -99.9 -99.99 -9.99
2019/10/14 18:18 EDT    1.84   3.14 -999 -999 -999 -99.9  83.8 -999.9 -9.9 -9.999 -99.9 -99.99 -9.99
2019/10/14 18:24 EDT    1.80   3.10 -999 -999 -999 -99.9  83.8 -999.9 -9.9 -9.999 -99.9 -99.99 -9.99
2019/10/14 18:30 EDT    1.76   3.07 -999 -999 -999 -99.9  83.8 -999.9 -9.9 -9.999 -99.9 -99.99 -9.99
2019/10/14 18:36 EDT    1.72   3.03 -999 -999 -999 -99.9  83.8 -999.9 -9.9 -9.999 -99.9 -99.99 -9.99
2019/10/14 18:42 EDT    1.69   2.99 -999 -999 -999 -99.9  83.8 -999.9 -9.9 -9.999 -99.9 -99.99 -9.99
2019/10/14 18:48 EDT    1.65   2.95 -999 -999 -999 -99.9  83.8 -999.9 -9.9 -9.999 -99.9 -99.99 -9.99
2019/10/14 18:54 EDT    1.62   2.91 -999 -999 -999 -99.9  84.0 -999.9 -9.9 -9.999 -99.9 -99.99 -9.99
2019/10/14 19:00 EDT    1.58   2.88 -999 -999 -999 -99.9  84.0 -999.9 -9.9 -9.999 -99.9 -99.99 -9.99
2019/10/14 19:06 EDT    1.55   2.84 -999 -999 -999 -99.9  84.0 -999.9 -9.9 -9.999 -99.9 -99.99 -9.99
2019/10/14 19:12 EDT    1.52   2.81 -999 -999 -999 -99.9  84.0 -999.9 -9.9 -9.999 -99.9 -99.99 -9.99
2019/10/14 19:18 EDT    1.49   2.78 -999 -999 -999 -99.9  84.0 -999.9 -9.9 -9.999 -99.9 -99.99 -9.99
2019/10/14 19:24 EDT    1.46   2.74 -999 -999 -999 -99.9  84.0 -999.9 -9.9 -9.999 -99.9 -99.99 -9.99
2019/10/14 19:30 EDT    1.43   2.71 -999 -999 -999 -99.9  84.0 -999.9 -9.9 -9.999 -99.9 -99.99 -9.99
2019/10/14 19:36 EDT    1.40   2.67 -999 -999 -999 -99.9  84.2 -999.9 -9.9 -9.999 -99.9 -99.99 -9.99
2019/10/14 19:42 EDT    1.38   2.64 -999 -999 -999 -99.9  84.2 -999.9 -9.9 -9.999 -99.9 -99.99 -9.99
2019/10/14 19:48 EDT    1.35   2.60 -999 -999 -999 -99.9  84.2 -999.9 -9.9 -9.999 -99.9 -99.99 -9.99
2019/10/14 19:54 EDT    1.33   2.58 -999 -999 -999 -99.9  84.2 -999.9 -9.9 -9.999 -99.9 -99.99 -9.99
2019/10/14 20:00 EDT    1.31   2.54 -999 -999 -999 -99.9  84.2 -999.9 -9.9 -9.999 -99.9 -99.99 -9.99
2019/10/14 20:06 EDT    1.29   2.50 -999 -999 -999 -99.9  84.2 -999.9 -9.9 -9.999 -99.9 -99.99 -9.99
2019/10/14 20:12 EDT    1.27   2.47 -999 -999 -999 -99.9  84.2 -999.9 -9.9 -9.999 -99.9 -99.99 -9.99
2019/10/14 20:18 EDT    1.25   2.45 -999 -999 -999 -99.9  84.2 -999.9 -9.9 -9.999 -99.9 -99.99 -9.99
2019/10/14 20:24 EDT    1.24   2.41 -999 -999 -999 -99.9  84.2 -999.9 -9.9 -9.999 -99.9 -99.99 -9.99
2019/10/14 20:30 EDT    1.22   2.38 -999 -999 -999 -99.9  84.2 -999.9 -9.9 -9.999 -99.9 -99.99 -9.99
2019/10/14 20:36 EDT    1.21   2.36 -999 -999 -999 -99.9  84.2 -999.9 -9.9 -9.999 -99.9 -99.99 -9.99
2019/10/14 20:42 EDT    1.20   2.34 -999 -999 -999 -99.9  84.2 -999.9 -9.9 -9.999 -99.9 -99.99 -9.99
2019/10/14 20:48 EDT    1.19   2.31 -999 -999 -999 -99.9  84.2 -999.9 -9.9 -9.999 -99.9 -99.99 -9.99
2019/10/14 20:54 EDT    1.18   2.28 -999 -999 -999 -99.9  84.2 -999.9 -9.9 -9.999 -99.9 -99.99 -9.99
2019/10/14 21:00 EDT    1.17   2.26 -999 -999 -999 -99.9  84.2 -999.9 -9.9 -9.999 -99.9 -99.99 -9.99
2019/10/14 21:06 EDT    1.17   2.25 -999 -999 -999 -99.9  84.2 -999.9 -9.9 -9.999 -99.9 -99.99 -9.99
2019/10/14 21:12 EDT    1.16   2.24 -999 -999 -999 -99.9  84.2 -999.9 -9.9 -9.999 -99.9 -99.99 -9.99
2019/10/14 21:18 EDT    1.16   2.22 -999 -999 -999 -99.9  84.2 -999.9 -9.9 -9.999 -99.9 -99.99 -9.99
2019/10/14 21:24 EDT    1.16   2.21 -999 -999 -999 -99.9  84.2 -999.9 -9.9 -9.999 -99.9 -99.99 -9.99
2019/10/14 21:30 EDT    1.17   2.20 -999 -999 -999 -99.9  84.2 -999.9 -9.9 -9.999 -99.9 -99.99 -9.99
2019/10/14 21:36 EDT    1.17   2.20 -999 -999 -999 -99.9  84.2 -999.9 -9.9 -9.999 -99.9 -99.99 -9.99
2019/10/14 21:42 EDT    1.18   2.20 -999 -999 -999 -99.9  84.4 -999.9 -9.9 -9.999 -99.9 -99.99 -9.99
2019/10/14 21:48 EDT    1.19   2.21 -999 -999 -999 -99.9  84.4 -999.9 -9.9 -9.999 -99.9 -99.99 -9.99
2019/10/14 21:54 EDT    1.20   2.22 -999 -999 -999 -99.9  84.4 -999.9 -9.9 -9.999 -99.9 -99.99 -9.99
2019/10/14 22:00 EDT    1.22   2.23 -999 -999 -999 -99.9  84.4 -999.9 -9.9 -9.999 -99.9 -99.99 -9.99
2019/10/14 22:06 EDT    1.24   2.26 -999 -999 -999 -99.9  84.4 -999.9 -9.9 -9.999 -99.9 -99.99 -9.99
2019/10/14 22:12 EDT    1.26   2.29 -999 -999 -999 -99.9  84.4 -999.9 -9.9 -9.999 -99.9 -99.99 -9.99
2019/10/14 22:18 EDT    1.28   2.31 -999 -999 -999 -99.9  84.6 -999.9 -9.9 -9.999 -99.9 -99.99 -9.99
2019/10/14 22:24 EDT    1.31   2.36 -999 -999 -999 -99.9  84.6 -999.9 -9.9 -9.999 -99.9 -99.99 -9.99
2019/10/14 22:30 EDT    1.34   2.41 -999 -999 -999 -99.9  84.9 -999.9 -9.9 -9.999 -99.9 -99.99 -9.99
2019/10/14 22:36 EDT    1.37   2.47 -999 -999 -999 -99.9  85.1 -999.9 -9.9 -9.999 -99.9 -99.99 -9.99
2019/10/14 22:42 EDT    1.41   2.53 -999 -999 -999 -99.9  85.1 -999.9 -9.9 -9.999 -99.9 -99.99 -9.99
2019/10/14 22:48 EDT    1.45   2.58 -999 -999 -999 -99.9  85.3 -999.9 -9.9 -9.999 -99.9 -99.99 -9.99
2019/10/14 22:54 EDT    1.49   2.65 -999 -999 -999 -99.9  85.5 -999.9 -9.9 -9.999 -99.9 -99.99 -9.99
2019/10/14 23:00 EDT    1.53   2.72 -999 -999 -999 -99.9  85.5 -999.9 -9.9 -9.999 -99.9 -99.99 -9.99
2019/10/14 23:06 EDT    1.58   2.78 -999 -999 -999 -99.9  85.5 -999.9 -9.9 -9.999 -99.9 -99.99 -9.99
2019/10/14 23:12 EDT    1.62   2.84 -999 -999 -999 -99.9  85.1 -999.9 -9.9 -9.999 -99.9 -99.99 -9.99
2019/10/14 23:18 EDT    1.67   2.90 -999 -999 -999 -99.9  85.3 -999.9 -9.9 -9.999 -99.9 -99.99 -9.99
2019/10/14 23:24 EDT    1.72   2.97 -999 -999 -999 -99.9  85.3 -999.9 -9.9 -9.999 -99.9 -99.99 -9.99
2019/10/14 23:30 EDT    1.77   3.03 -999 -999 -999 -99.9  85.3 -999.9 -9.9 -9.999 -99.9 -99.99 -9.99
2019/10/14 23:36 EDT    1.82   3.09 -999 -999 -999 -99.9  85.3 -999.9 -9.9 -9.999 -99.9 -99.99 -9.99
2019/10/14 23:42 EDT    1.88   3.15 -999 -999 -999 -99.9  85.3 -999.9 -9.9 -9.999 -99.9 -99.99 -9.99
2019/10/14 23:48 EDT    1.93   3.21 -999 -999 -999 -99.9  85.3 -999.9 -9.9 -9.999 -99.9 -99.99 -9.99
2019/10/14 23:54 EDT    1.98   3.27 -999 -999 -999 -99.9  85.5 -999.9 -9.9 -9.999 -99.9 -99.99 -9.99
2019/10/15 00:00 EDT    2.04   3.33 -999 -999 -999 -99.9  85.5 -999.9 -9.9 -9.999 -99.9 -99.99 -9.99
2019/10/15 00:06 EDT    2.09   3.39 -999 -999 -999 -99.9  85.5 -999.9 -9.9 -9.999 -99.9 -99.99 -9.99
2019/10/15 00:12 EDT    2.14   3.44 -999 -999 -999 -99.9  85.3 -999.9 -9.9 -9.999 -99.9 -99.99 -9.99
2019/10/15 00:18 EDT    2.20   3.48 -999 -999 -999 -99.9  85.3 -999.9 -9.9 -9.999 -99.9 -99.99 -9.99
2019/10/15 00:24 EDT    2.25   3.53 -999 -999 -999 -99.9  85.3 -999.9 -9.9 -9.999 -99.9 -99.99 -9.99
2019/10/15 00:30 EDT    2.30   3.56 -999 -999 -999 -99.9  85.3 -999.9 -9.9 -9.999 -99.9 -99.99 -9.99
2019/10/15 00:36 EDT    2.34   3.60 -999 -999 -999 -99.9  85.3 -999.9 -9.9 -9.999 -99.9 -99.99 -9.99
2019/10/15 00:42 EDT    2.39   3.64 -999 -999 -999 -99.9  85.1 -999.9 -9.9 -9.999 -99.9 -99.99 -9.99
2019/10/15 00:48 EDT    2.43   3.68 -999 -999 -999 -99.9  85.1 -999.9 -9.9 -9.999 -99.9 -99.99 -9.99
2019/10/15 00:54 EDT    2.47   3.71 -999 -999 -999 -99.9  84.9 -999.9 -9.9 -9.999 -99.9 -99.99 -9.99
2019/10/15 01:00 EDT    2.51   3.73 -999 -999 -999 -99.9  84.9 -999.9 -9.9 -9.999 -99.9 -99.99 -9.99
2019/10/15 01:06 EDT    2.55   3.76 -999 -999 -999 -99.9  84.9 -999.9 -9.9 -9.999 -99.9 -99.99 -9.99
2019/10/15 01:12 EDT    2.58   3.79 -999 -999 -999 -99.9  84.9 -999.9 -9.9 -9.999 -99.9 -99.99 -9.99
2019/10/15 01:18 EDT    2.62   3.82 -999 -999 -999 -99.9  84.9 -999.9 -9.9 -9.999 -99.9 -99.99 -9.99
2019/10/15 01:24 EDT    2.65   3.84 -999 -999 -999 -99.9  84.7 -999.9 -9.9 -9.999 -99.9 -99.99 -9.99
2019/10/15 01:30 EDT    2.67   3.87 -999 -999 -999 -99.9  84.7 -999.9 -9.9 -9.999 -99.9 -99.99 -9.99
2019/10/15 01:36 EDT    2.70   3.89 -999 -999 -999 -99.9  84.6 -999.9 -9.9 -9.999 -99.9 -99.99 -9.99
2019/10/15 01:42 EDT    2.72   3.94 -999 -999 -999 -99.9  84.6 -999.9 -9.9 -9.999 -99.9 -99.99 -9.99
2019/10/15 01:48 EDT    2.74   3.95 -999 -999 -999 -99.9  84.6 -999.9 -9.9 -9.999 -99.9 -99.99 -9.99
2019/10/15 01:54 EDT    2.75   3.95 -999 -999 -999 -99.9  84.6 -999.9 -9.9 -9.999 -99.9 -99.99 -9.99
2019/10/15 02:00 EDT    2.77   3.99 -999 -999 -999 -99.9  84.4 -999.9 -9.9 -9.999 -99.9 -99.99 -9.99
2019/10/15 02:06 EDT    2.78   4.02 -999 -999 -999 -99.9  84.4 -999.9 -9.9 -9.999 -99.9 -99.99 -9.99
2019/10/15 02:12 EDT    2.79   4.05 -999 -999 -999 -99.9  84.4 -999.9 -9.9 -9.999 -99.9 -99.99 -9.99
2019/10/15 02:18 EDT    2.79   4.05 -999 -999 -999 -99.9  84.4 -999.9 -9.9 -9.999 -99.9 -99.99 -9.99
2019/10/15 02:24 EDT    2.80   4.08 -999 -999 -999 -99.9  84.4 -999.9 -9.9 -9.999 -99.9 -99.99 -9.99
2019/10/15 02:30 EDT    2.80   4.12 -999 -999 -999 -99.9  84.4 -999.9 -9.9 -9.999 -99.9 -99.99 -9.99
2019/10/15 02:36 EDT    2.80   4.11 -999 -999 -999 -99.9  84.4 -999.9 -9.9 -9.999 -99.9 -99.99 -9.99
2019/10/15 02:42 EDT    2.80   4.14 -999 -999 -999 -99.9  84.4 -999.9 -9.9 -9.999 -99.9 -99.99 -9.99
2019/10/15 02:48 EDT    2.80   4.15 -999 -999 -999 -99.9  84.4 -999.9 -9.9 -9.999 -99.9 -99.99 -9.99
2019/10/15 02:54 EDT    2.79   4.16 -999 -999 -999 -99.9  84.4 -999.9 -9.9 -9.999 -99.9 -99.99 -9.99
2019/10/15 03:00 EDT    2.79   4.18 -999 -999 -999 -99.9  84.2 -999.9 -9.9 -9.999 -99.9 -99.99 -9.99
2019/10/15 03:06 EDT    2.78   4.19 -999 -999 -999 -99.9  84.2 -999.9 -9.9 -9.999 -99.9 -99.99 -9.99
2019/10/15 03:12 EDT    2.77   4.20 -999 -999 -999 -99.9  84.2 -999.9 -9.9 -9.999 -99.9 -99.99 -9.99
2019/10/15 03:18 EDT    2.76   4.21 -999 -999 -999 -99.9  84.2 -999.9 -9.9 -9.999 -99.9 -99.99 -9.99
2019/10/15 03:24 EDT    2.74   4.22 -999 -999 -999 -99.9  84.2 -999.9 -9.9 -9.999 -99.9 -99.99 -9.99
2019/10/15 03:30 EDT    2.73   4.22 -999 -999 -999 -99.9  84.2 -999.9 -9.9 -9.999 -99.9 -99.99 -9.99
2019/10/15 03:36 EDT    2.71   4.24 -999 -999 -999 -99.9  84.2 -999.9 -9.9 -9.999 -99.9 -99.99 -9.99
2019/10/15 03:42 EDT    2.69   4.22 -999 -999 -999 -99.9  84.0 -999.9 -9.9 -9.999 -99.9 -99.99 -9.99
2019/10/15 03:48 EDT    2.67   4.19 -999 -999 -999 -99.9  84.0 -999.9 -9.9 -9.999 -99.9 -99.99 -9.99
2019/10/15 03:54 EDT    2.65   4.18 -999 -999 -999 -99.9  84.0 -999.9 -9.9 -9.999 -99.9 -99.99 -9.99
2019/10/15 04:00 EDT    2.62   4.18 -999 -999 -999 -99.9  84.0 -999.9 -9.9 -9.999 -99.9 -99.99 -9.99
2019/10/15 04:06 EDT    2.60   4.14 -999 -999 -999 -99.9  84.0 -999.9 -9.9 -9.999 -99.9 -99.99 -9.99
2019/10/15 04:12 EDT    2.57   4.10 -999 -999 -999 -99.9  84.0 -999.9 -9.9 -9.999 -99.9 -99.99 -9.99
2019/10/15 04:18 EDT    2.54   4.07 -999 -999 -999 -99.9  84.0 -999.9 -9.9 -9.999 -99.9 -99.99 -9.99
2019/10/15 04:24 EDT    2.50   4.02 -999 -999 -999 -99.9  84.0 -999.9 -9.9 -9.999 -99.9 -99.99 -9.99
2019/10/15 04:30 EDT    2.47   3.98 -999 -999 -999 -99.9  84.0 -999.9 -9.9 -9.999 -99.9 -99.99 -9.99
2019/10/15 04:36 EDT    2.43   3.96 -999 -999 -999 -99.9  84.0 -999.9 -9.9 -9.999 -99.9 -99.99 -9.99
2019/10/15 04:42 EDT    2.39   3.89 -999 -999 -999 -99.9  84.0 -999.9 -9.9 -9.999 -99.9 -99.99 -9.99
2019/10/15 04:48 EDT    2.35   3.83 -999 -999 -999 -99.9  84.2 -999.9 -9.9 -9.999 -99.9 -99.99 -9.99
2019/10/15 04:54 EDT    2.31   3.81 -999 -999 -999 -99.9  84.2 -999.9 -9.9 -9.999 -99.9 -99.99 -9.99
2019/10/15 05:00 EDT    2.27   3.75 -999 -999 -999 -99.9  84.2 -999.9 -9.9 -9.999 -99.9 -99.99 -9.99
2019/10/15 05:06 EDT    2.22   3.67 -999 -999 -999 -99.9  84.2 -999.9 -9.9 -9.999 -99.9 -99.99 -9.99
2019/10/15 05:12 EDT    2.17   3.63 -999 -999 -999 -99.9  84.0 -999.9 -9.9 -9.999 -99.9 -99.99 -9.99
2019/10/15 05:18 EDT    2.12   3.57 -999 -999 -999 -99.9  84.0 -999.9 -9.9 -9.999 -99.9 -99.99 -9.99
2019/10/15 05:24 EDT    2.07   3.49 -999 -999 -999 -99.9  84.0 -999.9 -9.9 -9.999 -99.9 -99.99 -9.99
2019/10/15 05:30 EDT    2.02   3.47 -999 -999 -999 -99.9  84.0 -999.9 -9.9 -9.999 -99.9 -99.99 -9.99
2019/10/15 05:36 EDT    1.96   3.44 -999 -999 -999 -99.9  84.2 -999.9 -9.9 -9.999 -99.9 -99.99 -9.99
2019/10/15 05:42 EDT    1.91   3.34 -999 -999 -999 -99.9  84.0 -999.9 -9.9 -9.999 -99.9 -99.99 -9.99
2019/10/15 05:48 EDT    1.85   3.29 -999 -999 -999 -99.9  84.0 -999.9 -9.9 -9.999 -99.9 -99.99 -9.99
2019/10/15 05:54 EDT    1.80   3.29 -999 -999 -999 -99.9  84.0 -999.9 -9.9 -9.999 -99.9 -99.99 -9.99
2019/10/15 06:00 EDT    1.74   3.24 -999 -999 -999 -99.9  84.0 -999.9 -9.9 -9.999 -99.9 -99.99 -9.99
2019/10/15 06:06 EDT    1.68   3.18 -999 -999 -999 -99.9  84.0 -999.9 -9.9 -9.999 -99.9 -99.99 -9.99
2019/10/15 06:12 EDT    1.62   3.14 -999 -999 -999 -99.9  84.0 -999.9 -9.9 -9.999 -99.9 -99.99 -9.99
2019/10/15 06:18 EDT    1.56   3.12 -999 -999 -999 -99.9  84.0 -999.9 -9.9 -9.999 -99.9 -99.99 -9.99
2019/10/15 06:24 EDT    1.51   3.08 -999 -999 -999 -99.9  84.2 -999.9 -9.9 -9.999 -99.9 -99.99 -9.99
2019/10/15 06:30 EDT    1.45   3.04 -999 -999 -999 -99.9  84.2 -999.9 -9.9 -9.999 -99.9 -99.99 -9.99
2019/10/15 06:36 EDT    1.39   3.02 -999 -999 -999 -99.9  84.2 -999.9 -9.9 -9.999 -99.9 -99.99 -9.99
2019/10/15 06:42 EDT    1.33   2.97 -999 -999 -999 -99.9  84.2 -999.9 -9.9 -9.999 -99.9 -99.99 -9.99
2019/10/15 06:48 EDT    1.28   2.91 -999 -999 -999 -99.9  84.2 -999.9 -9.9 -9.999 -99.9 -99.99 -9.99
2019/10/15 06:54 EDT    1.22   2.89 -999 -999 -999 -99.9  84.2 -999.9 -9.9 -9.999 -99.9 -99.99 -9.99
2019/10/15 07:00 EDT    1.17   2.87 -999 -999 -999 -99.9  84.2 -999.9 -9.9 -9.999 -99.9 -99.99 -9.99
2019/10/15 07:06 EDT    1.12   2.82 -999 -999 -999 -99.9  84.2 -999.9 -9.9 -9.999 -99.9 -99.99 -9.99
2019/10/15 07:12 EDT    1.06   2.76 -999 -999 -999 -99.9  84.2 -999.9 -9.9 -9.999 -99.9 -99.99 -9.99
2019/10/15 07:18 EDT    1.01   2.73 -999 -999 -999 -99.9  84.2 -999.9 -9.9 -9.999 -99.9 -99.99 -9.99
2019/10/15 07:24 EDT    0.96   2.63 -999 -999 -999 -99.9  84.2 -999.9 -9.9 -9.999 -99.9 -99.99 -9.99
2019/10/15 07:30 EDT    0.92   2.61 -999 -999 -999 -99.9  84.2 -999.9 -9.9 -9.999 -99.9 -99.99 -9.99
2019/10/15 07:36 EDT    0.87   2.56 -999 -999 -999 -99.9  84.2 -999.9 -9.9 -9.999 -99.9 -99.99 -9.99
2019/10/15 07:42 EDT    0.83   2.51 -999 -999 -999 -99.9  84.2 -999.9 -9.9 -9.999 -99.9 -99.99 -9.99
2019/10/15 07:48 EDT    0.78   2.47 -999 -999 -999 -99.9  84.2 -999.9 -9.9 -9.999 -99.9 -99.99 -9.99
2019/10/15 07:54 EDT    0.74   2.41 -999 -999 -999 -99.9  84.2 -999.9 -9.9 -9.999 -99.9 -99.99 -9.99
2019/10/15 08:00 EDT    0.70   2.37 -999 -999 -999 -99.9  84.2 -999.9 -9.9 -9.999 -99.9 -99.99 -9.99
2019/10/15 08:06 EDT    0.66   2.33 -999 -999 -999 -99.9  84.2 -999.9 -9.9 -9.999 -99.9 -99.99 -9.99
2019/10/15 08:12 EDT    0.62   2.29 -999 -999 -999 -99.9  84.2 -999.9 -9.9 -9.999 -99.9 -99.99 -9.99
2019/10/15 08:18 EDT    0.59   2.22 -999 -999 -999 -99.9  84.2 -999.9 -9.9 -9.999 -99.9 -99.99 -9.99
2019/10/15 08:24 EDT    0.56   2.17 -999 -999 -999 -99.9  84.2 -999.9 -9.9 -9.999 -99.9 -99.99 -9.99
2019/10/15 08:30 EDT    0.52   2.14 -999 -999 -999 -99.9  84.2 -999.9 -9.9 -9.999 -99.9 -99.99 -9.99
2019/10/15 08:36 EDT    0.49   2.10 -999 -999 -999 -99.9  84.2 -999.9 -9.9 -9.999 -99.9 -99.99 -9.99
2019/10/15 08:42 EDT    0.46   2.05 -999 -999 -999 -99.9  84.2 -999.9 -9.9 -9.999 -99.9 -99.99 -9.99
2019/10/15 08:48 EDT    0.43   2.01 -999 -999 -999 -99.9  84.2 -999.9 -9.9 -9.999 -99.9 -99.99 -9.99
2019/10/15 08:54 EDT    0.41   1.96 -999 -999 -999 -99.9  84.2 -999.9 -9.9 -9.999 -99.9 -99.99 -9.99
2019/10/15 09:00 EDT    0.38   1.96 -999 -999 -999 -99.9  84.2 -999.9 -9.9 -9.999 -99.9 -99.99 -9.99
2019/10/15 09:06 EDT    0.36   1.92 -999 -999 -999 -99.9  84.2 -999.9 -9.9 -9.999 -99.9 -99.99 -9.99
2019/10/15 09:12 EDT    0.34   1.88 -999 -999 -999 -99.9  84.2 -999.9 -9.9 -9.999 -99.9 -99.99 -9.99
2019/10/15 09:18 EDT    0.32   1.86 -999 -999 -999 -99.9  84.0 -999.9 -9.9 -9.999 -99.9 -99.99 -9.99
2019/10/15 09:24 EDT    0.31   1.85 -999 -999 -999 -99.9  84.0 -999.9 -9.9 -9.999 -99.9 -99.99 -9.99
2019/10/15 09:30 EDT    0.29   1.82 -999 -999 -999 -99.9  84.0 -999.9 -9.9 -9.999 -99.9 -99.99 -9.99
2019/10/15 09:36 EDT    0.28   1.80 -999 -999 -999 -99.9  84.0 -999.9 -9.9 -9.999 -99.9 -99.99 -9.99
2019/10/15 09:42 EDT    0.27   1.80 -999 -999 -999 -99.9  84.0 -999.9 -9.9 -9.999 -99.9 -99.99 -9.99
2019/10/15 09:48 EDT    0.26   1.79 -999 -999 -999 -99.9  84.0 -999.9 -9.9 -9.999 -99.9 -99.99 -9.99
2019/10/15 09:54 EDT    0.26   1.79 -999 -999 -999 -99.9  84.0 -999.9 -9.9 -9.999 -99.9 -99.99 -9.99
2019/10/15 10:00 EDT    0.26   1.79 -999 -999 -999 -99.9  84.0 -999.9 -9.9 -9.999 -99.9 -99.99 -9.99
2019/10/15 10:06 EDT    0.26   1.79 -999 -999 -999 -99.9  84.0 -999.9 -9.9 -9.999 -99.9 -99.99 -9.99
2019/10/15 10:12 EDT    0.26   1.80 -999 -999 -999 -99.9  84.0 -999.9 -9.9 -9.999 -99.9 -99.99 -9.99
2019/10/15 10:18 EDT    0.27   1.81 -999 -999 -999 -99.9  84.0 -999.9 -9.9 -9.999 -99.9 -99.99 -9.99
2019/10/15 10:24 EDT    0.28   1.83 -999 -999 -999 -99.9  84.0 -999.9 -9.9 -9.999 -99.9 -99.99 -9.99
2019/10/15 10:30 EDT    0.29   1.85 -999 -999 -999 -99.9  84.0 -999.9 -9.9 -9.999 -99.9 -99.99 -9.99
2019/10/15 10:36 EDT    0.31   1.90 -999 -999 -999 -99.9  84.0 -999.9 -9.9 -9.999 -99.9 -99.99 -9.99
2019/10/15 10:42 EDT    0.33   1.95 -999 -999 -999 -99.9  84.0 -999.9 -9.9 -9.999 -99.9 -99.99 -9.99
2019/10/15 10:48 EDT    0.35   1.96 -999 -999 -999 -99.9  84.0 -999.9 -9.9 -9.999 -99.9 -99.99 -9.99
2019/10/15 10:54 EDT    0.38   2.00 -999 -999 -999 -99.9  84.0 -999.9 -9.9 -9.999 -99.9 -99.99 -9.99
2019/10/15 11:00 EDT    0.41   2.11 -999 -999 -999 -99.9  84.0 -999.9 -9.9 -9.999 -99.9 -99.99 -9.99
2019/10/15 11:06 EDT    0.44   2.18 -999 -999 -999 -99.9  84.0 -999.9 -9.9 -9.999 -99.9 -99.99 -9.99
2019/10/15 11:12 EDT    0.47   2.22 -999 -999 -999 -99.9  84.2 -999.9 -9.9 -9.999 -99.9 -99.99 -9.99
2019/10/15 11:18 EDT    0.51   2.28 -999 -999 -999 -99.9  84.4 -999.9 -9.9 -9.999 -99.9 -99.99 -9.99
2019/10/15 11:24 EDT    0.55   2.37 -999 -999 -999 -99.9  84.4 -999.9 -9.9 -9.999 -99.9 -99.99 -9.99
2019/10/15 11:30 EDT    0.60   2.46 -999 -999 -999 -99.9  84.7 -999.9 -9.9 -9.999 -99.9 -99.99 -9.99
2019/10/15 11:36 EDT    0.65   2.56 -999 -999 -999 -99.9  85.1 -999.9 -9.9 -9.999 -99.9 -99.99 -9.99
2019/10/15 11:42 EDT    0.70   2.64 -999 -999 -999 -99.9  85.5 -999.9 -9.9 -9.999 -99.9 -99.99 -9.99
2019/10/15 11:48 EDT    0.75   2.70 -999 -999 -999 -99.9  85.8 -999.9 -9.9 -9.999 -99.9 -99.99 -9.99
2019/10/15 11:54 EDT    0.80   2.78 -999 -999 -999 -99.9  86.2 -999.9 -9.9 -9.999 -99.9 -99.99 -9.99
2019/10/15 12:00 EDT    0.86   2.87 -999 -999 -999 -99.9  86.2 -999.9 -9.9 -9.999 -99.9 -99.99 -9.99
2019/10/15 12:06 EDT    0.91   2.93 -999 -999 -999 -99.9  86.2 -999.9 -9.9 -9.999 -99.9 -99.99 -9.99
2019/10/15 12:12 EDT    0.97   2.97 -999 -999 -999 -99.9  86.2 -999.9 -9.9 -9.999 -99.9 -99.99 -9.99
2019/10/15 12:18 EDT    1.03   3.03 -999 -999 -999 -99.9  86.2 -999.9 -9.9 -9.999 -99.9 -99.99 -9.99
2019/10/15 12:24 EDT    1.09   3.10 -999 -999 -999 -99.9  86.2 -999.9 -9.9 -9.999 -99.9 -99.99 -9.99
2019/10/15 12:30 EDT    1.15   3.14 -999 -999 -999 -99.9  86.0 -999.9 -9.9 -9.999 -99.9 -99.99 -9.99
2019/10/15 12:36 EDT    1.21   3.17 -999 -999 -999 -99.9  86.0 -999.9 -9.9 -9.999 -99.9 -99.99 -9.99
2019/10/15 12:42 EDT    1.27   3.21 -999 -999 -999 -99.9  86.0 -999.9 -9.9 -9.999 -99.9 -99.99 -9.99
2019/10/15 12:48 EDT    1.33   3.25 -999 -999 -999 -99.9  86.0 -999.9 -9.9 -9.999 -99.9 -99.99 -9.99
2019/10/15 12:54 EDT    1.39   3.28 -999 -999 -999 -99.9  86.0 -999.9 -9.9 -9.999 -99.9 -99.99 -9.99
2019/10/15 13:00 EDT    1.45   3.32 -999 -999 -999 -99.9  86.0 -999.9 -9.9 -9.999 -99.9 -99.99 -9.99
2019/10/15 13:06 EDT    1.50   3.36 -999 -999 -999 -99.9  86.2 -999.9 -9.9 -9.999 -99.9 -99.99 -9.99
2019/10/15 13:12 EDT    1.56   3.38 -999 -999 -999 -99.9  86.2 -999.9 -9.9 -9.999 -99.9 -99.99 -9.99
2019/10/15 13:18 EDT    1.61   3.42 -999 -999 -999 -99.9  86.2 -999.9 -9.9 -9.999 -99.9 -99.99 -9.99
2019/10/15 13:24 EDT    1.66   3.47 -999 -999 -999 -99.9  86.4 -999.9 -9.9 -9.999 -99.9 -99.99 -9.99
2019/10/15 13:30 EDT    1.72   3.48 -999 -999 -999 -99.9  86.5 -999.9 -9.9 -9.999 -99.9 -99.99 -9.99
2019/10/15 13:36 EDT    1.76   3.49 -999 -999 -999 -99.9  86.7 -999.9 -9.9 -9.999 -99.9 -99.99 -9.99
2019/10/15 13:42 EDT    1.81   3.53 -999 -999 -999 -99.9  86.7 -999.9 -9.9 -9.999 -99.9 -99.99 -9.99
2019/10/15 13:48 EDT    1.86   3.56 -999 -999 -999 -99.9  86.5 -999.9 -9.9 -9.999 -99.9 -99.99 -9.99
2019/10/15 13:54 EDT    1.90   3.58 -999 -999 -999 -99.9  86.5 -999.9 -9.9 -9.999 -99.9 -99.99 -9.99
2019/10/15 14:00 EDT    1.94   3.61 -999 -999 -999 -99.9  86.2 -999.9 -9.9 -9.999 -99.9 -99.99 -9.99
2019/10/15 14:06 EDT    1.98   3.66 -999 -999 -999 -99.9  86.2 -999.9 -9.9 -9.999 -99.9 -99.99 -9.99
2019/10/15 14:12 EDT    2.02   3.69 -999 -999 -999 -99.9  86.0 -999.9 -9.9 -9.999 -99.9 -99.99 -9.99
2019/10/15 14:18 EDT    2.05   3.71 -999 -999 -999 -99.9  86.0 -999.9 -9.9 -9.999 -99.9 -99.99 -9.99
2019/10/15 14:24 EDT    2.08   3.75 -999 -999 -999 -99.9  85.8 -999.9 -9.9 -9.999 -99.9 -99.99 -9.99
2019/10/15 14:30 EDT    2.12   3.78 -999 -999 -999 -99.9  85.8 -999.9 -9.9 -9.999 -99.9 -99.99 -9.99
2019/10/15 14:36 EDT    2.14   3.81 -999 -999 -999 -99.9  85.6 -999.9 -9.9 -9.999 -99.9 -99.99 -9.99
2019/10/15 14:42 EDT    2.17   3.85 -999 -999 -999 -99.9  85.6 -999.9 -9.9 -9.999 -99.9 -99.99 -9.99
2019/10/15 14:48 EDT    2.20   3.87 -999 -999 -999 -99.9  85.5 -999.9 -9.9 -9.999 -99.9 -99.99 -9.99
2019/10/15 14:54 EDT    2.22   3.90 -999 -999 -999 -99.9  85.5 -999.9 -9.9 -9.999 -99.9 -99.99 -9.99
2019/10/15 15:00 EDT    2.24   3.93 -999 -999 -999 -99.9  85.5 -999.9 -9.9 -9.999 -99.9 -99.99 -9.99
2019/10/15 15:06 EDT    2.26   3.98 -999 -999 -999 -99.9  85.6 -999.9 -9.9 -9.999 -99.9 -99.99 -9.99
2019/10/15 15:12 EDT    2.28   4.01 -999 -999 -999 -99.9  85.6 -999.9 -9.9 -9.999 -99.9 -99.99 -9.99
2019/10/15 15:18 EDT    2.30   4.04 -999 -999 -999 -99.9  85.8 -999.9 -9.9 -9.999 -99.9 -99.99 -9.99
2019/10/15 15:24 EDT    2.32   4.04 -999 -999 -999 -99.9  85.8 -999.9 -9.9 -9.999 -99.9 -99.99 -9.99
2019/10/15 15:30 EDT    2.33   4.08 -999 -999 -999 -99.9  85.6 -999.9 -9.9 -9.999 -99.9 -99.99 -9.99
2019/10/15 15:36 EDT    2.34   4.09 -999 -999 -999 -99.9  85.6 -999.9 -9.9 -9.999 -99.9 -99.99 -9.99
2019/10/15 15:42 EDT    2.36   4.09 -999 -999 -999 -99.9  85.6 -999.9 -9.9 -9.999 -99.9 -99.99 -9.99
2019/10/15 15:48 EDT    2.37   4.09 -999 -999 -999 -99.9  85.6 -999.9 -9.9 -9.999 -99.9 -99.99 -9.99
2019/10/15 15:54 EDT    2.37   4.10 -999 -999 -999 -99.9  85.6 -999.9 -9.9 -9.999 -99.9 -99.99 -9.99
2019/10/15 16:00 EDT    2.38   4.12 -999 -999 -999 -99.9  85.6 -999.9 -9.9 -9.999 -99.9 -99.99 -9.99
2019/10/15 16:06 EDT    2.39   4.11 -999 -999 -999 -99.9  85.6 -999.9 -9.9 -9.999 -99.9 -99.99 -9.99
2019/10/15 16:12 EDT    2.39   4.11 -999 -999 -999 -99.9  85.6 -999.9 -9.9 -9.999 -99.9 -99.99 -9.99
2019/10/15 16:18 EDT    2.39   4.11 -999 -999 -999 -99.9  85.6 -999.9 -9.9 -9.999 -99.9 -99.99 -9.99
2019/10/15 16:24 EDT    2.39   4.11 -999 -999 -999 -99.9  85.6 -999.9 -9.9 -9.999 -99.9 -99.99 -9.99
2019/10/15 16:30 EDT    2.39   4.10 -999 -999 -999 -99.9  85.8 -999.9 -9.9 -9.999 -99.9 -99.99 -9.99
2019/10/15 16:36 EDT    2.38   4.09 -999 -999 -999 -99.9  85.8 -999.9 -9.9 -9.999 -99.9 -99.99 -9.99
2019/10/15 16:42 EDT    2.38   4.09 -999 -999 -999 -99.9  85.8 -999.9 -9.9 -9.999 -99.9 -99.99 -9.99
2019/10/15 16:48 EDT    2.37   4.09 -999 -999 -999 -99.9  85.8 -999.9 -9.9 -9.999 -99.9 -99.99 -9.99
2019/10/15 16:54 EDT    2.36   4.08 -999 -999 -999 -99.9  85.8 -999.9 -9.9 -9.999 -99.9 -99.99 -9.99
2019/10/15 17:00 EDT    2.34   4.07 -999 -999 -999 -99.9  85.8 -999.9 -9.9 -9.999 -99.9 -99.99 -9.99
2019/10/15 17:06 EDT    2.33   4.06 -999 -999 -999 -99.9  85.8 -999.9 -9.9 -9.999 -99.9 -99.99 -9.99
2019/10/15 17:12 EDT    2.31   4.03 -999 -999 -999 -99.9  85.8 -999.9 -9.9 -9.999 -99.9 -99.99 -9.99
2019/10/15 17:18 EDT    2.29   4.01 -999 -999 -999 -99.9  85.8 -999.9 -9.9 -9.999 -99.9 -99.99 -9.99
2019/10/15 17:24 EDT    2.27   3.99 -999 -999 -999 -99.9  85.8 -999.9 -9.9 -9.999 -99.9 -99.99 -9.99
2019/10/15 17:30 EDT    2.25   3.96 -999 -999 -999 -99.9  85.8 -999.9 -9.9 -9.999 -99.9 -99.99 -9.99
2019/10/15 17:36 EDT    2.22   3.92 -999 -999 -999 -99.9  85.8 -999.9 -9.9 -9.999 -99.9 -99.99 -9.99
2019/10/15 17:42 EDT    2.20   3.89 -999 -999 -999 -99.9  85.6 -999.9 -9.9 -9.999 -99.9 -99.99 -9.99
2019/10/15 17:48 EDT    2.17   3.86 -999 -999 -999 -99.9  85.6 -999.9 -9.9 -9.999 -99.9 -99.99 -9.99
2019/10/15 17:54 EDT    2.14   3.82 -999 -999 -999 -99.9  85.6 -999.9 -9.9 -9.999 -99.9 -99.99 -9.99
2019/10/15 18:00 EDT    2.11   3.78 -999 -999 -999 -99.9  85.6 -999.9 -9.9 -9.999 -99.9 -99.99 -9.99
2019/10/15 18:06 EDT    2.07   3.74 -999 -999 -999 -99.9  85.5 -999.9 -9.9 -9.999 -99.9 -99.99 -9.99
2019/10/15 18:12 EDT    2.04   3.70 -999 -999 -999 -99.9  85.5 -999.9 -9.9 -9.999 -99.9 -99.99 -9.99
2019/10/15 18:18 EDT    2.01   3.63 -999 -999 -999 -99.9  85.5 -999.9 -9.9 -9.999 -99.9 -99.99 -9.99
2019/10/15 18:24 EDT    1.97   3.62 -999 -999 -999 -99.9  85.5 -999.9 -9.9 -9.999 -99.9 -99.99 -9.99
2019/10/15 18:30 EDT    1.93   3.60 -999 -999 -999 -99.9  85.3 -999.9 -9.9 -9.999 -99.9 -99.99 -9.99
2019/10/15 18:36 EDT    1.90   3.52 -999 -999 -999 -99.9  85.3 -999.9 -9.9 -9.999 -99.9 -99.99 -9.99
2019/10/15 18:42 EDT    1.86   3.50 -999 -999 -999 -99.9  85.3 -999.9 -9.9 -9.999 -99.9 -99.99 -9.99
2019/10/15 18:48 EDT    1.83   3.47 -999 -999 -999 -99.9  85.3 -999.9 -9.9 -9.999 -99.9 -99.99 -9.99
2019/10/15 18:54 EDT    1.79   3.44 -999 -999 -999 -99.9  85.3 -999.9 -9.9 -9.999 -99.9 -99.99 -9.99
2019/10/15 19:00 EDT    1.75   3.39 -999 -999 -999 -99.9  85.3 -999.9 -9.9 -9.999 -99.9 -99.99 -9.99
2019/10/15 19:06 EDT    1.72   3.36 -999 -999 -999 -99.9  84.4 -999.9 -9.9 -9.999 -99.9 -99.99 -9.99
2019/10/15 19:12 EDT    1.68   3.37 -999 -999 -999 -99.9  84.4 -999.9 -9.9 -9.999 -99.9 -99.99 -9.99
2019/10/15 19:18 EDT    1.65   3.33 -999 -999 -999 -99.9  84.4 -999.9 -9.9 -9.999 -99.9 -99.99 -9.99
2019/10/15 19:24 EDT    1.62   3.26 -999 -999 -999 -99.9  84.4 -999.9 -9.9 -9.999 -99.9 -99.99 -9.99
2019/10/15 19:30 EDT    1.58   3.26 -999 -999 -999 -99.9  84.4 -999.9 -9.9 -9.999 -99.9 -99.99 -9.99
2019/10/15 19:36 EDT    1.55   3.22 -999 -999 -999 -99.9  84.6 -999.9 -9.9 -9.999 -99.9 -99.99 -9.99
2019/10/15 19:42 EDT    1.52   3.18 -999 -999 -999 -99.9  84.2 -999.9 -9.9 -9.999 -99.9 -99.99 -9.99
2019/10/15 19:48 EDT    1.50   3.15 -999 -999 -999 -99.9  84.2 -999.9 -9.9 -9.999 -99.9 -99.99 -9.99
2019/10/15 19:54 EDT    1.47   3.12 -999 -999 -999 -99.9  84.2 -999.9 -9.9 -9.999 -99.9 -99.99 -9.99
2019/10/15 20:00 EDT    1.44   3.08 -999 -999 -999 -99.9  84.2 -999.9 -9.9 -9.999 -99.9 -99.99 -9.99
2019/10/15 20:06 EDT    1.42   3.05 -999 -999 -999 -99.9  84.2 -999.9 -9.9 -9.999 -99.9 -99.99 -9.99
2019/10/15 20:12 EDT    1.40   3.01 -999 -999 -999 -99.9  84.4 -999.9 -9.9 -9.999 -99.9 -99.99 -9.99
2019/10/15 20:18 EDT    1.38   2.99 -999 -999 -999 -99.9  84.4 -999.9 -9.9 -9.999 -99.9 -99.99 -9.99
2019/10/15 20:24 EDT    1.36   2.96 -999 -999 -999 -99.9  84.4 -999.9 -9.9 -9.999 -99.9 -99.99 -9.99
2019/10/15 20:30 EDT    1.34   2.90 -999 -999 -999 -99.9  84.6 -999.9 -9.9 -9.999 -99.9 -99.99 -9.99
2019/10/15 20:36 EDT    1.33   2.87 -999 -999 -999 -99.9  84.6 -999.9 -9.9 -9.999 -99.9 -99.99 -9.99
2019/10/15 20:42 EDT    1.31   2.85 -999 -999 -999 -99.9  84.6 -999.9 -9.9 -9.999 -99.9 -99.99 -9.99
2019/10/15 20:48 EDT    1.30   2.82 -999 -999 -999 -99.9  84.6 -999.9 -9.9 -9.999 -99.9 -99.99 -9.99
2019/10/15 20:54 EDT    1.29   2.77 -999 -999 -999 -99.9  84.7 -999.9 -9.9 -9.999 -99.9 -99.99 -9.99
2019/10/15 21:00 EDT    1.28   2.75 -999 -999 -999 -99.9  84.7 -999.9 -9.9 -9.999 -99.9 -99.99 -9.99
2019/10/15 21:06 EDT    1.28   2.73 -999 -999 -999 -99.9  84.7 -999.9 -9.9 -9.999 -99.9 -99.99 -9.99
2019/10/15 21:12 EDT    1.27   2.72 -999 -999 -999 -99.9  84.7 -999.9 -9.9 -9.999 -99.9 -99.99 -9.99
2019/10/15 21:18 EDT    1.27   2.70 -999 -999 -999 -99.9  84.7 -999.9 -9.9 -9.999 -99.9 -99.99 -9.99
2019/10/15 21:24 EDT    1.26   2.68 -999 -999 -999 -99.9  84.9 -999.9 -9.9 -9.999 -99.9 -99.99 -9.99
2019/10/15 21:30 EDT    1.26   2.68 -999 -999 -999 -99.9  85.3 -999.9 -9.9 -9.999 -99.9 -99.99 -9.99
2019/10/15 21:36 EDT    1.26   2.67 -999 -999 -999 -99.9  85.6 -999.9 -9.9 -9.999 -99.9 -99.99 -9.99
2019/10/15 21:42 EDT    1.26   2.66 -999 -999 -999 -99.9  85.8 -999.9 -9.9 -9.999 -99.9 -99.99 -9.99
2019/10/15 21:48 EDT    1.27   2.65 -999 -999 -999 -99.9  86.2 -999.9 -9.9 -9.999 -99.9 -99.99 -9.99
2019/10/15 21:54 EDT    1.28   2.66 -999 -999 -999 -99.9  86.4 -999.9 -9.9 -9.999 -99.9 -99.99 -9.99
2019/10/15 22:00 EDT    1.28   2.67 -999 -999 -999 -99.9  86.5 -999.9 -9.9 -9.999 -99.9 -99.99 -9.99
2019/10/15 22:06 EDT    1.29   2.66 -999 -999 -999 -99.9  86.5 -999.9 -9.9 -9.999 -99.9 -99.99 -9.99
2019/10/15 22:12 EDT    1.31   2.67 -999 -999 -999 -99.9  86.7 -999.9 -9.9 -9.999 -99.9 -99.99 -9.99
2019/10/15 22:18 EDT    1.32   2.69 -999 -999 -999 -99.9  86.9 -999.9 -9.9 -9.999 -99.9 -99.99 -9.99
2019/10/15 22:24 EDT    1.34   2.71 -999 -999 -999 -99.9  86.9 -999.9 -9.9 -9.999 -99.9 -99.99 -9.99
2019/10/15 22:30 EDT    1.35   2.72 -999 -999 -999 -99.9  87.1 -999.9 -9.9 -9.999 -99.9 -99.99 -9.99
2019/10/15 22:36 EDT    1.38   2.73 -999 -999 -999 -99.9  87.1 -999.9 -9.9 -9.999 -99.9 -99.99 -9.99
2019/10/15 22:42 EDT    1.40   2.76 -999 -999 -999 -99.9  87.3 -999.9 -9.9 -9.999 -99.9 -99.99 -9.99
2019/10/15 22:48 EDT    1.43   2.79 -999 -999 -999 -99.9  87.3 -999.9 -9.9 -9.999 -99.9 -99.99 -9.99
2019/10/15 22:54 EDT    1.45   2.82 -999 -999 -999 -99.9  87.4 -999.9 -9.9 -9.999 -99.9 -99.99 -9.99
2019/10/15 23:00 EDT    1.48   2.85 -999 -999 -999 -99.9  87.6 -999.9 -9.9 -9.999 -99.9 -99.99 -9.99
2019/10/15 23:06 EDT    1.52   2.89 -999 -999 -999 -99.9  87.8 -999.9 -9.9 -9.999 -99.9 -99.99 -9.99
2019/10/15 23:12 EDT    1.55   2.93 -999 -999 -999 -99.9  88.0 -999.9 -9.9 -9.999 -99.9 -99.99 -9.99
2019/10/15 23:18 EDT    1.59   2.97 -999 -999 -999 -99.9  88.0 -999.9 -9.9 -9.999 -99.9 -99.99 -9.99
2019/10/15 23:24 EDT    1.63   3.03 -999 -999 -999 -99.9  88.2 -999.9 -9.9 -9.999 -99.9 -99.99 -9.99
2019/10/15 23:30 EDT    1.67   3.07 -999 -999 -999 -99.9  88.2 -999.9 -9.9 -9.999 -99.9 -99.99 -9.99
2019/10/15 23:36 EDT    1.72   3.12 -999 -999 -999 -99.9  88.3 -999.9 -9.9 -9.999 -99.9 -99.99 -9.99
2019/10/15 23:42 EDT    1.77   3.17 -999 -999 -999 -99.9  88.3 -999.9 -9.9 -9.999 -99.9 -99.99 -9.99
2019/10/15 23:48 EDT    1.81   3.23 -999 -999 -999 -99.9  88.3 -999.9 -9.9 -9.999 -99.9 -99.99 -9.99
2019/10/15 23:54 EDT    1.86   3.29 -999 -999 -999 -99.9  88.3 -999.9 -9.9 -9.999 -99.9 -99.99 -9.99
2019/10/16 00:00 EDT    1.92   3.34 -999 -999 -999 -99.9  88.2 -999.9 -9.9 -9.999 -99.9 -99.99 -9.99
2019/10/16 00:06 EDT    1.97   3.39 -999 -999 -999 -99.9  88.2 -999.9 -9.9 -9.999 -99.9 -99.99 -9.99
2019/10/16 00:12 EDT    2.02   3.44 -999 -999 -999 -99.9  88.0 -999.9 -9.9 -9.999 -99.9 -99.99 -9.99
2019/10/16 00:18 EDT    2.08   3.48 -999 -999 -999 -99.9  87.8 -999.9 -9.9 -9.999 -99.9 -99.99 -9.99
2019/10/16 00:24 EDT    2.13   3.53 -999 -999 -999 -99.9  87.8 -999.9 -9.9 -9.999 -99.9 -99.99 -9.99
2019/10/16 00:30 EDT    2.19   3.58 -999 -999 -999 -99.9  87.8 -999.9 -9.9 -9.999 -99.9 -99.99 -9.99
2019/10/16 00:36 EDT    2.24   3.63 -999 -999 -999 -99.9  88.0 -999.9 -9.9 -9.999 -99.9 -99.99 -9.99
2019/10/16 00:42 EDT    2.30   3.68 -999 -999 -999 -99.9  88.2 -999.9 -9.9 -9.999 -99.9 -99.99 -9.99
2019/10/16 00:48 EDT    2.35   3.72 -999 -999 -999 -99.9  88.0 -999.9 -9.9 -9.999 -99.9 -99.99 -9.99
2019/10/16 00:54 EDT    2.40   3.76 -999 -999 -999 -99.9  88.0 -999.9 -9.9 -9.999 -99.9 -99.99 -9.99
2019/10/16 01:00 EDT    2.45   3.80 -999 -999 -999 -99.9  88.0 -999.9 -9.9 -9.999 -99.9 -99.99 -9.99
2019/10/16 01:06 EDT    2.50   3.83 -999 -999 -999 -99.9  87.6 -999.9 -9.9 -9.999 -99.9 -99.99 -9.99
2019/10/16 01:12 EDT    2.55   3.87 -999 -999 -999 -99.9  87.6 -999.9 -9.9 -9.999 -99.9 -99.99 -9.99
2019/10/16 01:18 EDT    2.60   3.91 -999 -999 -999 -99.9  87.6 -999.9 -9.9 -9.999 -99.9 -99.99 -9.99
2019/10/16 01:24 EDT    2.64   3.94 -999 -999 -999 -99.9  87.4 -999.9 -9.9 -9.999 -99.9 -99.99 -9.99
2019/10/16 01:30 EDT    2.68   3.97 -999 -999 -999 -99.9  87.4 -999.9 -9.9 -9.999 -99.9 -99.99 -9.99
2019/10/16 01:36 EDT    2.72   4.01 -999 -999 -999 -99.9  87.3 -999.9 -9.9 -9.999 -99.9 -99.99 -9.99
2019/10/16 01:42 EDT    2.76   4.04 -999 -999 -999 -99.9  87.1 -999.9 -9.9 -9.999 -99.9 -99.99 -9.99
2019/10/16 01:48 EDT    2.79   4.08 -999 -999 -999 -99.9  87.1 -999.9 -9.9 -9.999 -99.9 -99.99 -9.99
2019/10/16 01:54 EDT    2.82   4.10 -999 -999 -999 -99.9  87.1 -999.9 -9.9 -9.999 -99.9 -99.99 -9.99
2019/10/16 02:00 EDT    2.85   4.13 -999 -999 -999 -99.9  87.1 -999.9 -9.9 -9.999 -99.9 -99.99 -9.99
2019/10/16 02:06 EDT    2.87   4.16 -999 -999 -999 -99.9  86.9 -999.9 -9.9 -9.999 -99.9 -99.99 -9.99
2019/10/16 02:12 EDT    2.90   4.18 -999 -999 -999 -99.9  86.9 -999.9 -9.9 -9.999 -99.9 -99.99 -9.99
2019/10/16 02:18 EDT    2.91   4.21 -999 -999 -999 -99.9  86.7 -999.9 -9.9 -9.999 -99.9 -99.99 -9.99
2019/10/16 02:24 EDT    2.93   4.25 -999 -999 -999 -99.9  86.7 -999.9 -9.9 -9.999 -99.9 -99.99 -9.99
2019/10/16 02:30 EDT    2.94   4.27 -999 -999 -999 -99.9  86.5 -999.9 -9.9 -9.999 -99.9 -99.99 -9.99
2019/10/16 02:36 EDT    2.95   4.30 -999 -999 -999 -99.9  86.5 -999.9 -9.9 -9.999 -99.9 -99.99 -9.99
2019/10/16 02:42 EDT    2.96   4.33 -999 -999 -999 -99.9  86.4 -999.9 -9.9 -9.999 -99.9 -99.99 -9.99
2019/10/16 02:48 EDT    2.96   4.35 -999 -999 -999 -99.9  86.4 -999.9 -9.9 -9.999 -99.9 -99.99 -9.99
2019/10/16 02:54 EDT    2.96   4.38 -999 -999 -999 -99.9  86.4 -999.9 -9.9 -9.999 -99.9 -99.99 -9.99
2019/10/16 03:00 EDT    2.96   4.40 -999 -999 -999 -99.9  86.2 -999.9 -9.9 -9.999 -99.9 -99.99 -9.99
2019/10/16 03:06 EDT    2.96   4.41 -999 -999 -999 -99.9  86.0 -999.9 -9.9 -9.999 -99.9 -99.99 -9.99
2019/10/16 03:12 EDT    2.95   4.42 -999 -999 -999 -99.9  85.8 -999.9 -9.9 -9.999 -99.9 -99.99 -9.99
2019/10/16 03:18 EDT    2.94   4.41 -999 -999 -999 -99.9  85.8 -999.9 -9.9 -9.999 -99.9 -99.99 -9.99
2019/10/16 03:24 EDT    2.93   4.41 -999 -999 -999 -99.9  85.8 -999.9 -9.9 -9.999 -99.9 -99.99 -9.99
2019/10/16 03:30 EDT    2.92   4.41 -999 -999 -999 -99.9  85.8 -999.9 -9.9 -9.999 -99.9 -99.99 -9.99
2019/10/16 03:36 EDT    2.90   4.39 -999 -999 -999 -99.9  85.8 -999.9 -9.9 -9.999 -99.9 -99.99 -9.99
2019/10/16 03:42 EDT    2.89   4.38 -999 -999 -999 -99.9  85.8 -999.9 -9.9 -9.999 -99.9 -99.99 -9.99
2019/10/16 03:48 EDT    2.87   4.37 -999 -999 -999 -99.9  85.8 -999.9 -9.9 -9.999 -99.9 -99.99 -9.99
2019/10/16 03:54 EDT    2.85   4.35 -999 -999 -999 -99.9  85.6 -999.9 -9.9 -9.999 -99.9 -99.99 -9.99
2019/10/16 04:00 EDT    2.83   4.33 -999 -999 -999 -99.9  85.6 -999.9 -9.9 -9.999 -99.9 -99.99 -9.99
2019/10/16 04:06 EDT    2.80   4.32 -999 -999 -999 -99.9  85.6 -999.9 -9.9 -9.999 -99.9 -99.99 -9.99
2019/10/16 04:12 EDT    2.78   4.30 -999 -999 -999 -99.9  85.6 -999.9 -9.9 -9.999 -99.9 -99.99 -9.99
2019/10/16 04:18 EDT    2.75   4.28 -999 -999 -999 -99.9  85.6 -999.9 -9.9 -9.999 -99.9 -99.99 -9.99
2019/10/16 04:24 EDT    2.72   4.25 -999 -999 -999 -99.9  85.6 -999.9 -9.9 -9.999 -99.9 -99.99 -9.99
2019/10/16 04:30 EDT    2.69   4.22 -999 -999 -999 -99.9  85.5 -999.9 -9.9 -9.999 -99.9 -99.99 -9.99
2019/10/16 04:36 EDT    2.66   4.19 -999 -999 -999 -99.9  85.5 -999.9 -9.9 -9.999 -99.9 -99.99 -9.99
2019/10/16 04:42 EDT    2.63   4.16 -999 -999 -999 -99.9  85.5 -999.9 -9.9 -9.999 -99.9 -99.99 -9.99
2019/10/16 04:48 EDT    2.59   4.11 -999 -999 -999 -99.9  85.5 -999.9 -9.9 -9.999 -99.9 -99.99 -9.99
2019/10/16 04:54 EDT    2.56   4.07 -999 -999 -999 -99.9  85.5 -999.9 -9.9 -9.999 -99.9 -99.99 -9.99
2019/10/16 05:00 EDT    2.52   4.02 -999 -999 -999 -99.9  85.5 -999.9 -9.9 -9.999 -99.9 -99.99 -9.99
2019/10/16 05:06 EDT    2.48   3.97 -999 -999 -999 -99.9  85.5 -999.9 -9.9 -9.999 -99.9 -99.99 -9.99
2019/10/16 05:12 EDT    2.44   3.92 -999 -999 -999 -99.9  85.3 -999.9 -9.9 -9.999 -99.9 -99.99 -9.99
2019/10/16 05:18 EDT    2.40   3.87 -999 -999 -999 -99.9  85.3 -999.9 -9.9 -9.999 -99.9 -99.99 -9.99
2019/10/16 05:24 EDT    2.35   3.82 -999 -999 -999 -99.9  85.3 -999.9 -9.9 -9.999 -99.9 -99.99 -9.99
2019/10/16 05:30 EDT    2.30   3.77 -999 -999 -999 -99.9  85.3 -999.9 -9.9 -9.999 -99.9 -99.99 -9.99
2019/10/16 05:36 EDT    2.26   3.72 -999 -999 -999 -99.9  85.3 -999.9 -9.9 -9.999 -99.9 -99.99 -9.99
2019/10/16 05:42 EDT    2.21   3.68 -999 -999 -999 -99.9  85.3 -999.9 -9.9 -9.999 -99.9 -99.99 -9.99
2019/10/16 05:48 EDT    2.16   3.64 -999 -999 -999 -99.9  85.3 -999.9 -9.9 -9.999 -99.9 -99.99 -9.99
2019/10/16 05:54 EDT    2.10   3.59 -999 -999 -999 -99.9  85.3 -999.9 -9.9 -9.999 -99.9 -99.99 -9.99
2019/10/16 06:00 EDT    2.05   3.54 -999 -999 -999 -99.9  85.3 -999.9 -9.9 -9.999 -99.9 -99.99 -9.99
2019/10/16 06:06 EDT    1.99   3.50 -999 -999 -999 -99.9  85.3 -999.9 -9.9 -9.999 -99.9 -99.99 -9.99
2019/10/16 06:12 EDT    1.94   3.47 -999 -999 -999 -99.9  85.3 -999.9 -9.9 -9.999 -99.9 -99.99 -9.99
2019/10/16 06:18 EDT    1.88   3.43 -999 -999 -999 -99.9  85.3 -999.9 -9.9 -9.999 -99.9 -99.99 -9.99
2019/10/16 06:24 EDT    1.82   3.38 -999 -999 -999 -99.9  85.3 -999.9 -9.9 -9.999 -99.9 -99.99 -9.99
2019/10/16 06:30 EDT    1.76   3.34 -999 -999 -999 -99.9  85.3 -999.9 -9.9 -9.999 -99.9 -99.99 -9.99
2019/10/16 06:36 EDT    1.70   3.29 -999 -999 -999 -99.9  85.3 -999.9 -9.9 -9.999 -99.9 -99.99 -9.99
2019/10/16 06:42 EDT    1.64   3.22 -999 -999 -999 -99.9  85.1 -999.9 -9.9 -9.999 -99.9 -99.99 -9.99
2019/10/16 06:48 EDT    1.58   3.21 -999 -999 -999 -99.9  85.1 -999.9 -9.9 -9.999 -99.9 -99.99 -9.99
2019/10/16 06:54 EDT    1.52   3.16 -999 -999 -999 -99.9  85.1 -999.9 -9.9 -9.999 -99.9 -99.99 -9.99
2019/10/16 07:00 EDT    1.46   3.11 -999 -999 -999 -99.9  85.1 -999.9 -9.9 -9.999 -99.9 -99.99 -9.99
2019/10/16 07:06 EDT    1.40   3.05 -999 -999 -999 -99.9  85.1 -999.9 -9.9 -9.999 -99.9 -99.99 -9.99
2019/10/16 07:12 EDT    1.34   2.99 -999 -999 -999 -99.9  85.1 -999.9 -9.9 -9.999 -99.9 -99.99 -9.99
2019/10/16 07:18 EDT    1.28   2.96 -999 -999 -999 -99.9  85.1 -999.9 -9.9 -9.999 -99.9 -99.99 -9.99
2019/10/16 07:24 EDT    1.22   2.92 -999 -999 -999 -99.9  85.1 -999.9 -9.9 -9.999 -99.9 -99.99 -9.99
2019/10/16 07:30 EDT    1.16   2.85 -999 -999 -999 -99.9  85.1 -999.9 -9.9 -9.999 -99.9 -99.99 -9.99
2019/10/16 07:36 EDT    1.11   2.81 -999 -999 -999 -99.9  85.1 -999.9 -9.9 -9.999 -99.9 -99.99 -9.99
2019/10/16 07:42 EDT    1.05   2.78 -999 -999 -999 -99.9  85.1 -999.9 -9.9 -9.999 -99.9 -99.99 -9.99
2019/10/16 07:48 EDT    1.00   2.73 -999 -999 -999 -99.9  85.1 -999.9 -9.9 -9.999 -99.9 -99.99 -9.99
2019/10/16 07:54 EDT    0.95   2.66 -999 -999 -999 -99.9  85.1 -999.9 -9.9 -9.999 -99.9 -99.99 -9.99
2019/10/16 08:00 EDT    0.89   2.62 -999 -999 -999 -99.9  85.1 -999.9 -9.9 -9.999 -99.9 -99.99 -9.99
2019/10/16 08:06 EDT    0.85   2.59 -999 -999 -999 -99.9  84.9 -999.9 -9.9 -9.999 -99.9 -99.99 -9.99
2019/10/16 08:12 EDT    0.80   2.54 -999 -999 -999 -99.9  84.7 -999.9 -9.9 -9.999 -99.9 -99.99 -9.99
2019/10/16 08:18 EDT    0.75   2.47 -999 -999 -999 -99.9  84.7 -999.9 -9.9 -9.999 -99.9 -99.99 -9.99
2019/10/16 08:24 EDT    0.71   2.43 -999 -999 -999 -99.9  84.7 -999.9 -9.9 -9.999 -99.9 -99.99 -9.99
2019/10/16 08:30 EDT    0.66   2.40 -999 -999 -999 -99.9  84.7 -999.9 -9.9 -9.999 -99.9 -99.99 -9.99
2019/10/16 08:36 EDT    0.62   2.35 -999 -999 -999 -99.9  84.9 -999.9 -9.9 -9.999 -99.9 -99.99 -9.99
2019/10/16 08:42 EDT    0.58   2.30 -999 -999 -999 -99.9  84.9 -999.9 -9.9 -9.999 -99.9 -99.99 -9.99
2019/10/16 08:48 EDT    0.55   2.26 -999 -999 -999 -99.9  84.9 -999.9 -9.9 -9.999 -99.9 -99.99 -9.99
2019/10/16 08:54 EDT    0.51   2.22 -999 -999 -999 -99.9  84.9 -999.9 -9.9 -9.999 -99.9 -99.99 -9.99
2019/10/16 09:00 EDT    0.48   2.19 -999 -999 -999 -99.9  84.9 -999.9 -9.9 -9.999 -99.9 -99.99 -9.99
2019/10/16 09:06 EDT    0.45   2.16 -999 -999 -999 -99.9  84.9 -999.9 -9.9 -9.999 -99.9 -99.99 -9.99
2019/10/16 09:12 EDT    0.42   2.13 -999 -999 -999 -99.9  84.9 -999.9 -9.9 -9.999 -99.9 -99.99 -9.99
2019/10/16 09:18 EDT    0.39   2.10 -999 -999 -999 -99.9  84.9 -999.9 -9.9 -9.999 -99.9 -99.99 -9.99
2019/10/16 09:24 EDT    0.36   2.07 -999 -999 -999 -99.9  84.7 -999.9 -9.9 -9.999 -99.9 -99.99 -9.99
2019/10/16 09:30 EDT    0.34   2.04 -999 -999 -999 -99.9  84.7 -999.9 -9.9 -9.999 -99.9 -99.99 -9.99
2019/10/16 09:36 EDT    0.31   2.01 -999 -999 -999 -99.9  84.7 -999.9 -9.9 -9.999 -99.9 -99.99 -9.99
2019/10/16 09:42 EDT    0.29   1.99 -999 -999 -999 -99.9  84.7 -999.9 -9.9 -9.999 -99.9 -99.99 -9.99
2019/10/16 09:48 EDT    0.27   1.97 -999 -999 -999 -99.9  84.6 -999.9 -9.9 -9.999 -99.9 -99.99 -9.99
2019/10/16 09:54 EDT    0.26   1.95 -999 -999 -999 -99.9  84.6 -999.9 -9.9 -9.999 -99.9 -99.99 -9.99
2019/10/16 10:00 EDT    0.24 -99.99 -999 -999 -999 -99.9 -99.9 -999.9 -9.9 -9.999 -99.9 -99.99 -9.99